<?xml version="1.0" encoding="UTF-8" standalone="no" ?>
<gpx xmlns="http://www.topografix.com/GPX/1/1" xmlns:xsi="http://www.w3.org/2001/XMLSchema-instance" xsi:schemaLocation="http://www.topografix.com/GPX/1/1 http://www.topografix.com/GPX/1/1/gpx.xsd" version="1.1" creator="VisuGPX - https://www.visugpx.com">
  <metadata>
    <name>j2, Aubrac, La Baume =&amp;gt; Le Radal du Trébatut</name>
    <desc><![CDATA[j2, Aubrac, La Baume => Le Radal du Trébatut.]]></desc>
  </metadata>
  <trk>
    <name><![CDATA[j2, Aubrac, La Baume =&gt; Le Radal du Trébatut_1]]></name>
    <trkseg>
      <trkpt lat="44.64801" lon="3.19343">
        <ele>1092.1</ele>
        <time>2021-05-30T06:34:21Z</time>
      </trkpt>
      <trkpt lat="44.64828" lon="3.19358">
        <ele>1096.4</ele>
        <time>2021-05-30T06:34:51Z</time>
      </trkpt>
      <trkpt lat="44.64834" lon="3.19368">
        <ele>1093.7</ele>
        <time>2021-05-30T06:35:25Z</time>
      </trkpt>
      <trkpt lat="44.64878" lon="3.19384">
        <ele>1095.9</ele>
        <time>2021-05-30T06:35:56Z</time>
      </trkpt>
      <trkpt lat="44.64914" lon="3.19399">
        <ele>1090.3</ele>
        <time>2021-05-30T06:36:27Z</time>
      </trkpt>
      <trkpt lat="44.64949" lon="3.19429">
        <ele>1088.8</ele>
        <time>2021-05-30T06:36:57Z</time>
      </trkpt>
      <trkpt lat="44.64976" lon="3.194">
        <ele>1095</ele>
        <time>2021-05-30T06:37:27Z</time>
      </trkpt>
      <trkpt lat="44.64997" lon="3.19357">
        <ele>1093.9</ele>
        <time>2021-05-30T06:37:58Z</time>
      </trkpt>
      <trkpt lat="44.65022" lon="3.19314">
        <ele>1092.4</ele>
        <time>2021-05-30T06:38:29Z</time>
      </trkpt>
      <trkpt lat="44.65039" lon="3.19314">
        <ele>1094</ele>
        <time>2021-05-30T06:39:00Z</time>
      </trkpt>
      <trkpt lat="44.6506" lon="3.19346">
        <ele>1097.2</ele>
        <time>2021-05-30T06:39:31Z</time>
      </trkpt>
      <trkpt lat="44.65075" lon="3.19387">
        <ele>1102.1</ele>
        <time>2021-05-30T06:40:01Z</time>
      </trkpt>
      <trkpt lat="44.6507" lon="3.19428">
        <ele>1097.7</ele>
        <time>2021-05-30T06:40:31Z</time>
      </trkpt>
      <trkpt lat="44.65072" lon="3.19456">
        <ele>1090.4</ele>
        <time>2021-05-30T06:41:02Z</time>
      </trkpt>
      <trkpt lat="44.65072" lon="3.19493">
        <ele>1091.4</ele>
        <time>2021-05-30T06:41:33Z</time>
      </trkpt>
      <trkpt lat="44.65096" lon="3.19541">
        <ele>1103.5</ele>
        <time>2021-05-30T06:42:03Z</time>
      </trkpt>
      <trkpt lat="44.65133" lon="3.19586">
        <ele>1101.7</ele>
        <time>2021-05-30T06:42:34Z</time>
      </trkpt>
      <trkpt lat="44.65166" lon="3.19607">
        <ele>1086.8</ele>
        <time>2021-05-30T06:43:04Z</time>
      </trkpt>
      <trkpt lat="44.65159" lon="3.19624">
        <ele>1080.9</ele>
        <time>2021-05-30T06:43:35Z</time>
      </trkpt>
      <trkpt lat="44.65132" lon="3.19655">
        <ele>1078.1</ele>
        <time>2021-05-30T06:44:05Z</time>
      </trkpt>
      <trkpt lat="44.65111" lon="3.19706">
        <ele>1074.8</ele>
        <time>2021-05-30T06:44:35Z</time>
      </trkpt>
      <trkpt lat="44.65107" lon="3.19718">
        <ele>1073.1</ele>
        <time>2021-05-30T06:45:10Z</time>
      </trkpt>
      <trkpt lat="44.65082" lon="3.19765">
        <ele>1078</ele>
        <time>2021-05-30T06:45:40Z</time>
      </trkpt>
      <trkpt lat="44.65049" lon="3.19813">
        <ele>1072.6</ele>
        <time>2021-05-30T06:46:11Z</time>
      </trkpt>
      <trkpt lat="44.65024" lon="3.19858">
        <ele>1067.5</ele>
        <time>2021-05-30T06:46:41Z</time>
      </trkpt>
      <trkpt lat="44.65002" lon="3.19903">
        <ele>1070.1</ele>
        <time>2021-05-30T06:47:11Z</time>
      </trkpt>
      <trkpt lat="44.64973" lon="3.19943">
        <ele>1073.7</ele>
        <time>2021-05-30T06:47:42Z</time>
      </trkpt>
      <trkpt lat="44.6496" lon="3.19957">
        <ele>1079.1</ele>
        <time>2021-05-30T06:48:12Z</time>
      </trkpt>
      <trkpt lat="44.64938" lon="3.19982">
        <ele>1082.1</ele>
        <time>2021-05-30T06:48:43Z</time>
      </trkpt>
      <trkpt lat="44.64904" lon="3.20019">
        <ele>1086.3</ele>
        <time>2021-05-30T06:49:13Z</time>
      </trkpt>
      <trkpt lat="44.64889" lon="3.20071">
        <ele>1086.3</ele>
        <time>2021-05-30T06:49:44Z</time>
      </trkpt>
      <trkpt lat="44.64892" lon="3.2013">
        <ele>1083.9</ele>
        <time>2021-05-30T06:50:14Z</time>
      </trkpt>
      <trkpt lat="44.6488" lon="3.20192">
        <ele>1085.9</ele>
        <time>2021-05-30T06:50:45Z</time>
      </trkpt>
      <trkpt lat="44.64869" lon="3.20248">
        <ele>1085.7</ele>
        <time>2021-05-30T06:51:16Z</time>
      </trkpt>
      <trkpt lat="44.64862" lon="3.20268">
        <ele>1087</ele>
        <time>2021-05-30T06:51:46Z</time>
      </trkpt>
      <trkpt lat="44.64855" lon="3.20284">
        <ele>1087.8</ele>
        <time>2021-05-30T06:53:53Z</time>
      </trkpt>
      <trkpt lat="44.64859" lon="3.20273">
        <ele>1086</ele>
        <time>2021-05-30T06:54:33Z</time>
      </trkpt>
      <trkpt lat="44.6486" lon="3.20287">
        <ele>1088.7</ele>
        <time>2021-05-30T06:56:00Z</time>
      </trkpt>
      <trkpt lat="44.64846" lon="3.2034">
        <ele>1085.8</ele>
        <time>2021-05-30T06:56:30Z</time>
      </trkpt>
      <trkpt lat="44.64828" lon="3.20397">
        <ele>1089.4</ele>
        <time>2021-05-30T06:57:01Z</time>
      </trkpt>
      <trkpt lat="44.64816" lon="3.20454">
        <ele>1088.4</ele>
        <time>2021-05-30T06:57:31Z</time>
      </trkpt>
      <trkpt lat="44.64811" lon="3.20519">
        <ele>1087.5</ele>
        <time>2021-05-30T06:58:02Z</time>
      </trkpt>
      <trkpt lat="44.64806" lon="3.20574">
        <ele>1083.9</ele>
        <time>2021-05-30T06:58:32Z</time>
      </trkpt>
      <trkpt lat="44.64779" lon="3.2063">
        <ele>1086.5</ele>
        <time>2021-05-30T06:59:03Z</time>
      </trkpt>
      <trkpt lat="44.64749" lon="3.20677">
        <ele>1087.1</ele>
        <time>2021-05-30T06:59:33Z</time>
      </trkpt>
      <trkpt lat="44.64721" lon="3.2072">
        <ele>1081.6</ele>
        <time>2021-05-30T07:00:04Z</time>
      </trkpt>
      <trkpt lat="44.64683" lon="3.20749">
        <ele>1083.8</ele>
        <time>2021-05-30T07:00:34Z</time>
      </trkpt>
      <trkpt lat="44.64641" lon="3.20763">
        <ele>1080.3</ele>
        <time>2021-05-30T07:01:04Z</time>
      </trkpt>
      <trkpt lat="44.646" lon="3.20777">
        <ele>1081.6</ele>
        <time>2021-05-30T07:01:35Z</time>
      </trkpt>
      <trkpt lat="44.64558" lon="3.20779">
        <ele>1081.5</ele>
        <time>2021-05-30T07:02:06Z</time>
      </trkpt>
      <trkpt lat="44.64515" lon="3.20776">
        <ele>1082.2</ele>
        <time>2021-05-30T07:02:36Z</time>
      </trkpt>
      <trkpt lat="44.64478" lon="3.20801">
        <ele>1082.5</ele>
        <time>2021-05-30T07:03:07Z</time>
      </trkpt>
      <trkpt lat="44.64481" lon="3.2085">
        <ele>1081.3</ele>
        <time>2021-05-30T07:03:38Z</time>
      </trkpt>
      <trkpt lat="44.64506" lon="3.20885">
        <ele>1087.1</ele>
        <time>2021-05-30T07:04:09Z</time>
      </trkpt>
      <trkpt lat="44.64506" lon="3.20941">
        <ele>1086.1</ele>
        <time>2021-05-30T07:04:40Z</time>
      </trkpt>
      <trkpt lat="44.64476" lon="3.21001">
        <ele>1091.6</ele>
        <time>2021-05-30T07:05:11Z</time>
      </trkpt>
      <trkpt lat="44.64446" lon="3.21032">
        <ele>1095.9</ele>
        <time>2021-05-30T07:05:41Z</time>
      </trkpt>
      <trkpt lat="44.64406" lon="3.21054">
        <ele>1095.6</ele>
        <time>2021-05-30T07:06:12Z</time>
      </trkpt>
      <trkpt lat="44.64366" lon="3.21056">
        <ele>1093.1</ele>
        <time>2021-05-30T07:06:42Z</time>
      </trkpt>
      <trkpt lat="44.64349" lon="3.2106">
        <ele>1096.8</ele>
        <time>2021-05-30T07:07:13Z</time>
      </trkpt>
      <trkpt lat="44.64338" lon="3.2106">
        <ele>1096.6</ele>
        <time>2021-05-30T07:07:43Z</time>
      </trkpt>
      <trkpt lat="44.64329" lon="3.21062">
        <ele>1097.1</ele>
        <time>2021-05-30T07:08:34Z</time>
      </trkpt>
      <trkpt lat="44.64294" lon="3.21088">
        <ele>1097.9</ele>
        <time>2021-05-30T07:09:04Z</time>
      </trkpt>
      <trkpt lat="44.64265" lon="3.21138">
        <ele>1099</ele>
        <time>2021-05-30T07:09:34Z</time>
      </trkpt>
      <trkpt lat="44.6424" lon="3.21184">
        <ele>1101.5</ele>
        <time>2021-05-30T07:10:05Z</time>
      </trkpt>
      <trkpt lat="44.64219" lon="3.21166">
        <ele>1094.2</ele>
        <time>2021-05-30T07:10:36Z</time>
      </trkpt>
      <trkpt lat="44.6419" lon="3.21142">
        <ele>1096.6</ele>
        <time>2021-05-30T07:11:06Z</time>
      </trkpt>
      <trkpt lat="44.64155" lon="3.21111">
        <ele>1102.8</ele>
        <time>2021-05-30T07:11:36Z</time>
      </trkpt>
      <trkpt lat="44.64116" lon="3.21091">
        <ele>1105.7</ele>
        <time>2021-05-30T07:12:07Z</time>
      </trkpt>
      <trkpt lat="44.64075" lon="3.21088">
        <ele>1109.1</ele>
        <time>2021-05-30T07:12:37Z</time>
      </trkpt>
      <trkpt lat="44.64034" lon="3.2108">
        <ele>1111.5</ele>
        <time>2021-05-30T07:13:08Z</time>
      </trkpt>
      <trkpt lat="44.64007" lon="3.21078">
        <ele>1110.6</ele>
        <time>2021-05-30T07:13:38Z</time>
      </trkpt>
      <trkpt lat="44.6397" lon="3.21069">
        <ele>1113.1</ele>
        <time>2021-05-30T07:14:08Z</time>
      </trkpt>
      <trkpt lat="44.63931" lon="3.2107">
        <ele>1117.6</ele>
        <time>2021-05-30T07:14:39Z</time>
      </trkpt>
      <trkpt lat="44.63892" lon="3.21083">
        <ele>1121.5</ele>
        <time>2021-05-30T07:15:09Z</time>
      </trkpt>
      <trkpt lat="44.63853" lon="3.211">
        <ele>1122</ele>
        <time>2021-05-30T07:15:40Z</time>
      </trkpt>
      <trkpt lat="44.63815" lon="3.2111">
        <ele>1122.6</ele>
        <time>2021-05-30T07:16:10Z</time>
      </trkpt>
      <trkpt lat="44.63776" lon="3.21117">
        <ele>1124.4</ele>
        <time>2021-05-30T07:16:41Z</time>
      </trkpt>
      <trkpt lat="44.63736" lon="3.21115">
        <ele>1126.1</ele>
        <time>2021-05-30T07:17:12Z</time>
      </trkpt>
      <trkpt lat="44.63697" lon="3.21126">
        <ele>1127.9</ele>
        <time>2021-05-30T07:17:42Z</time>
      </trkpt>
      <trkpt lat="44.63659" lon="3.21145">
        <ele>1128.8</ele>
        <time>2021-05-30T07:18:12Z</time>
      </trkpt>
      <trkpt lat="44.63626" lon="3.21187">
        <ele>1130.4</ele>
        <time>2021-05-30T07:18:43Z</time>
      </trkpt>
      <trkpt lat="44.63599" lon="3.21228">
        <ele>1129.6</ele>
        <time>2021-05-30T07:19:13Z</time>
      </trkpt>
      <trkpt lat="44.63561" lon="3.2125">
        <ele>1128.2</ele>
        <time>2021-05-30T07:19:43Z</time>
      </trkpt>
      <trkpt lat="44.63524" lon="3.21253">
        <ele>1129.3</ele>
        <time>2021-05-30T07:20:14Z</time>
      </trkpt>
      <trkpt lat="44.63478" lon="3.21252">
        <ele>1129</ele>
        <time>2021-05-30T07:20:45Z</time>
      </trkpt>
      <trkpt lat="44.6344" lon="3.21236">
        <ele>1130.6</ele>
        <time>2021-05-30T07:21:16Z</time>
      </trkpt>
      <trkpt lat="44.63398" lon="3.21218">
        <ele>1125.7</ele>
        <time>2021-05-30T07:21:46Z</time>
      </trkpt>
      <trkpt lat="44.6336" lon="3.21195">
        <ele>1123.8</ele>
        <time>2021-05-30T07:22:16Z</time>
      </trkpt>
      <trkpt lat="44.63321" lon="3.21165">
        <ele>1124.4</ele>
        <time>2021-05-30T07:22:47Z</time>
      </trkpt>
      <trkpt lat="44.63286" lon="3.21144">
        <ele>1126.1</ele>
        <time>2021-05-30T07:23:18Z</time>
      </trkpt>
      <trkpt lat="44.63253" lon="3.21112">
        <ele>1129.3</ele>
        <time>2021-05-30T07:23:48Z</time>
      </trkpt>
      <trkpt lat="44.63226" lon="3.21071">
        <ele>1127.4</ele>
        <time>2021-05-30T07:24:18Z</time>
      </trkpt>
      <trkpt lat="44.63189" lon="3.21086">
        <ele>1124.7</ele>
        <time>2021-05-30T07:24:49Z</time>
      </trkpt>
      <trkpt lat="44.63166" lon="3.21043">
        <ele>1123.2</ele>
        <time>2021-05-30T07:25:20Z</time>
      </trkpt>
      <trkpt lat="44.63135" lon="3.21018">
        <ele>1123.1</ele>
        <time>2021-05-30T07:25:50Z</time>
      </trkpt>
      <trkpt lat="44.63113" lon="3.20981">
        <ele>1114.3</ele>
        <time>2021-05-30T07:26:21Z</time>
      </trkpt>
      <trkpt lat="44.6308" lon="3.20946">
        <ele>1109.5</ele>
        <time>2021-05-30T07:26:51Z</time>
      </trkpt>
      <trkpt lat="44.63042" lon="3.20926">
        <ele>1109.7</ele>
        <time>2021-05-30T07:27:22Z</time>
      </trkpt>
      <trkpt lat="44.63016" lon="3.20933">
        <ele>1109.9</ele>
        <time>2021-05-30T07:27:52Z</time>
      </trkpt>
      <trkpt lat="44.63002" lon="3.20936">
        <ele>1107.3</ele>
        <time>2021-05-30T07:28:23Z</time>
      </trkpt>
      <trkpt lat="44.62984" lon="3.20984">
        <ele>1110.5</ele>
        <time>2021-05-30T07:28:54Z</time>
      </trkpt>
      <trkpt lat="44.62959" lon="3.21022">
        <ele>1108.9</ele>
        <time>2021-05-30T07:29:24Z</time>
      </trkpt>
      <trkpt lat="44.6295" lon="3.21061">
        <ele>1106.2</ele>
        <time>2021-05-30T07:29:54Z</time>
      </trkpt>
      <trkpt lat="44.62957" lon="3.21109">
        <ele>1104.4</ele>
        <time>2021-05-30T07:30:24Z</time>
      </trkpt>
      <trkpt lat="44.62954" lon="3.21121">
        <ele>1103.4</ele>
        <time>2021-05-30T07:31:04Z</time>
      </trkpt>
      <trkpt lat="44.62929" lon="3.21158">
        <ele>1101.5</ele>
        <time>2021-05-30T07:31:35Z</time>
      </trkpt>
      <trkpt lat="44.62884" lon="3.21155">
        <ele>1100.8</ele>
        <time>2021-05-30T07:32:06Z</time>
      </trkpt>
      <trkpt lat="44.62854" lon="3.21161">
        <ele>1102.4</ele>
        <time>2021-05-30T07:32:36Z</time>
      </trkpt>
      <trkpt lat="44.62844" lon="3.21165">
        <ele>1101.7</ele>
        <time>2021-05-30T07:33:07Z</time>
      </trkpt>
      <trkpt lat="44.62843" lon="3.21207">
        <ele>1105</ele>
        <time>2021-05-30T07:33:38Z</time>
      </trkpt>
      <trkpt lat="44.62849" lon="3.2126">
        <ele>1108.8</ele>
        <time>2021-05-30T07:34:08Z</time>
      </trkpt>
      <trkpt lat="44.62848" lon="3.21316">
        <ele>1104.2</ele>
        <time>2021-05-30T07:34:39Z</time>
      </trkpt>
      <trkpt lat="44.62833" lon="3.21374">
        <ele>1101</ele>
        <time>2021-05-30T07:35:10Z</time>
      </trkpt>
      <trkpt lat="44.62814" lon="3.21436">
        <ele>1099.7</ele>
        <time>2021-05-30T07:35:41Z</time>
      </trkpt>
      <trkpt lat="44.62814" lon="3.21495">
        <ele>1098.8</ele>
        <time>2021-05-30T07:36:12Z</time>
      </trkpt>
      <trkpt lat="44.62812" lon="3.21546">
        <ele>1092</ele>
        <time>2021-05-30T07:36:43Z</time>
      </trkpt>
      <trkpt lat="44.62814" lon="3.21605">
        <ele>1089.6</ele>
        <time>2021-05-30T07:37:14Z</time>
      </trkpt>
      <trkpt lat="44.62807" lon="3.2166">
        <ele>1088</ele>
        <time>2021-05-30T07:37:45Z</time>
      </trkpt>
      <trkpt lat="44.62788" lon="3.21715">
        <ele>1091.1</ele>
        <time>2021-05-30T07:38:16Z</time>
      </trkpt>
      <trkpt lat="44.62766" lon="3.21789">
        <ele>1106.2</ele>
        <time>2021-05-30T07:38:47Z</time>
      </trkpt>
      <trkpt lat="44.6275" lon="3.21846">
        <ele>1111.5</ele>
        <time>2021-05-30T07:39:17Z</time>
      </trkpt>
      <trkpt lat="44.62743" lon="3.21901">
        <ele>1115.3</ele>
        <time>2021-05-30T07:39:48Z</time>
      </trkpt>
      <trkpt lat="44.62739" lon="3.21964">
        <ele>1113.8</ele>
        <time>2021-05-30T07:40:19Z</time>
      </trkpt>
      <trkpt lat="44.62733" lon="3.22022">
        <ele>1111.4</ele>
        <time>2021-05-30T07:40:49Z</time>
      </trkpt>
      <trkpt lat="44.62724" lon="3.22028">
        <ele>1111.9</ele>
        <time>2021-05-30T07:41:20Z</time>
      </trkpt>
      <trkpt lat="44.62735" lon="3.22037">
        <ele>1110.7</ele>
        <time>2021-05-30T07:41:51Z</time>
      </trkpt>
      <trkpt lat="44.62725" lon="3.22058">
        <ele>1108.4</ele>
        <time>2021-05-30T07:42:22Z</time>
      </trkpt>
      <trkpt lat="44.62707" lon="3.22104">
        <ele>1109.2</ele>
        <time>2021-05-30T07:42:52Z</time>
      </trkpt>
      <trkpt lat="44.62715" lon="3.22083">
        <ele>1110.2</ele>
        <time>2021-05-30T07:43:22Z</time>
      </trkpt>
      <trkpt lat="44.62724" lon="3.22046">
        <ele>1109.8</ele>
        <time>2021-05-30T07:43:53Z</time>
      </trkpt>
      <trkpt lat="44.62722" lon="3.22024">
        <ele>1109.6</ele>
        <time>2021-05-30T07:44:23Z</time>
      </trkpt>
      <trkpt lat="44.62715" lon="3.22015">
        <ele>1108</ele>
        <time>2021-05-30T07:45:02Z</time>
      </trkpt>
      <trkpt lat="44.6269" lon="3.2198">
        <ele>1107.5</ele>
        <time>2021-05-30T07:45:32Z</time>
      </trkpt>
      <trkpt lat="44.62679" lon="3.21936">
        <ele>1105.2</ele>
        <time>2021-05-30T07:46:03Z</time>
      </trkpt>
      <trkpt lat="44.6268" lon="3.21894">
        <ele>1104.5</ele>
        <time>2021-05-30T07:46:33Z</time>
      </trkpt>
      <trkpt lat="44.6267" lon="3.21844">
        <ele>1108.1</ele>
        <time>2021-05-30T07:47:04Z</time>
      </trkpt>
      <trkpt lat="44.62667" lon="3.21794">
        <ele>1108.9</ele>
        <time>2021-05-30T07:47:34Z</time>
      </trkpt>
      <trkpt lat="44.62661" lon="3.21747">
        <ele>1111.8</ele>
        <time>2021-05-30T07:48:05Z</time>
      </trkpt>
      <trkpt lat="44.62654" lon="3.21712">
        <ele>1114.6</ele>
        <time>2021-05-30T07:48:36Z</time>
      </trkpt>
      <trkpt lat="44.62649" lon="3.21677">
        <ele>1114.1</ele>
        <time>2021-05-30T07:49:06Z</time>
      </trkpt>
      <trkpt lat="44.62637" lon="3.21638">
        <ele>1112.6</ele>
        <time>2021-05-30T07:49:36Z</time>
      </trkpt>
      <trkpt lat="44.62621" lon="3.21601">
        <ele>1114.8</ele>
        <time>2021-05-30T07:50:06Z</time>
      </trkpt>
      <trkpt lat="44.62604" lon="3.21559">
        <ele>1115</ele>
        <time>2021-05-30T07:50:37Z</time>
      </trkpt>
      <trkpt lat="44.62583" lon="3.21529">
        <ele>1114.3</ele>
        <time>2021-05-30T07:51:08Z</time>
      </trkpt>
      <trkpt lat="44.62551" lon="3.21471">
        <ele>1126.5</ele>
        <time>2021-05-30T07:51:39Z</time>
      </trkpt>
      <trkpt lat="44.62522" lon="3.21443">
        <ele>1128.5</ele>
        <time>2021-05-30T07:52:10Z</time>
      </trkpt>
      <trkpt lat="44.62487" lon="3.2141">
        <ele>1131</ele>
        <time>2021-05-30T07:52:41Z</time>
      </trkpt>
      <trkpt lat="44.6245" lon="3.21351">
        <ele>1136.1</ele>
        <time>2021-05-30T07:53:12Z</time>
      </trkpt>
      <trkpt lat="44.62426" lon="3.21318">
        <ele>1136.5</ele>
        <time>2021-05-30T07:53:42Z</time>
      </trkpt>
      <trkpt lat="44.624" lon="3.21299">
        <ele>1130.2</ele>
        <time>2021-05-30T07:54:12Z</time>
      </trkpt>
      <trkpt lat="44.62369" lon="3.21279">
        <ele>1121.6</ele>
        <time>2021-05-30T07:54:43Z</time>
      </trkpt>
      <trkpt lat="44.6234" lon="3.21253">
        <ele>1112.6</ele>
        <time>2021-05-30T07:55:13Z</time>
      </trkpt>
      <trkpt lat="44.62325" lon="3.21232">
        <ele>1109.1</ele>
        <time>2021-05-30T07:55:44Z</time>
      </trkpt>
      <trkpt lat="44.62315" lon="3.2123">
        <ele>1106.1</ele>
        <time>2021-05-30T07:56:24Z</time>
      </trkpt>
      <trkpt lat="44.62284" lon="3.2123">
        <ele>1112.4</ele>
        <time>2021-05-30T07:56:54Z</time>
      </trkpt>
      <trkpt lat="44.62254" lon="3.21231">
        <ele>1119.9</ele>
        <time>2021-05-30T07:57:25Z</time>
      </trkpt>
      <trkpt lat="44.6223" lon="3.21238">
        <ele>1128.3</ele>
        <time>2021-05-30T07:57:56Z</time>
      </trkpt>
      <trkpt lat="44.62205" lon="3.21263">
        <ele>1137.5</ele>
        <time>2021-05-30T07:58:27Z</time>
      </trkpt>
      <trkpt lat="44.62186" lon="3.21306">
        <ele>1145</ele>
        <time>2021-05-30T07:58:58Z</time>
      </trkpt>
      <trkpt lat="44.62162" lon="3.21353">
        <ele>1152.2</ele>
        <time>2021-05-30T07:59:29Z</time>
      </trkpt>
      <trkpt lat="44.62147" lon="3.21404">
        <ele>1153.7</ele>
        <time>2021-05-30T07:59:59Z</time>
      </trkpt>
      <trkpt lat="44.62121" lon="3.21446">
        <ele>1158.7</ele>
        <time>2021-05-30T08:00:30Z</time>
      </trkpt>
      <trkpt lat="44.62097" lon="3.21491">
        <ele>1160.8</ele>
        <time>2021-05-30T08:01:01Z</time>
      </trkpt>
      <trkpt lat="44.62067" lon="3.2154">
        <ele>1163.9</ele>
        <time>2021-05-30T08:01:32Z</time>
      </trkpt>
      <trkpt lat="44.62048" lon="3.21583">
        <ele>1164</ele>
        <time>2021-05-30T08:02:03Z</time>
      </trkpt>
      <trkpt lat="44.62034" lon="3.2163">
        <ele>1163.2</ele>
        <time>2021-05-30T08:02:34Z</time>
      </trkpt>
      <trkpt lat="44.62017" lon="3.21676">
        <ele>1164.4</ele>
        <time>2021-05-30T08:03:04Z</time>
      </trkpt>
      <trkpt lat="44.61996" lon="3.21726">
        <ele>1166.9</ele>
        <time>2021-05-30T08:03:35Z</time>
      </trkpt>
      <trkpt lat="44.61954" lon="3.2175">
        <ele>1170.8</ele>
        <time>2021-05-30T08:04:06Z</time>
      </trkpt>
      <trkpt lat="44.61916" lon="3.21753">
        <ele>1176.5</ele>
        <time>2021-05-30T08:04:36Z</time>
      </trkpt>
      <trkpt lat="44.61879" lon="3.21762">
        <ele>1179.6</ele>
        <time>2021-05-30T08:05:07Z</time>
      </trkpt>
      <trkpt lat="44.61841" lon="3.21789">
        <ele>1180.1</ele>
        <time>2021-05-30T08:05:38Z</time>
      </trkpt>
      <trkpt lat="44.618" lon="3.21802">
        <ele>1179.4</ele>
        <time>2021-05-30T08:06:08Z</time>
      </trkpt>
      <trkpt lat="44.61767" lon="3.21817">
        <ele>1180.9</ele>
        <time>2021-05-30T08:06:38Z</time>
      </trkpt>
      <trkpt lat="44.61745" lon="3.2187">
        <ele>1181</ele>
        <time>2021-05-30T08:07:08Z</time>
      </trkpt>
      <trkpt lat="44.6173" lon="3.21919">
        <ele>1181.7</ele>
        <time>2021-05-30T08:07:38Z</time>
      </trkpt>
      <trkpt lat="44.61714" lon="3.21966">
        <ele>1183.8</ele>
        <time>2021-05-30T08:08:09Z</time>
      </trkpt>
      <trkpt lat="44.61687" lon="3.22008">
        <ele>1185</ele>
        <time>2021-05-30T08:08:40Z</time>
      </trkpt>
      <trkpt lat="44.61653" lon="3.2204">
        <ele>1185.6</ele>
        <time>2021-05-30T08:09:11Z</time>
      </trkpt>
      <trkpt lat="44.61616" lon="3.22067">
        <ele>1189.2</ele>
        <time>2021-05-30T08:09:42Z</time>
      </trkpt>
      <trkpt lat="44.61603" lon="3.22092">
        <ele>1193.1</ele>
        <time>2021-05-30T08:10:13Z</time>
      </trkpt>
      <trkpt lat="44.61593" lon="3.22089">
        <ele>1195.6</ele>
        <time>2021-05-30T08:11:01Z</time>
      </trkpt>
      <trkpt lat="44.61575" lon="3.22082">
        <ele>1199.8</ele>
        <time>2021-05-30T08:11:32Z</time>
      </trkpt>
      <trkpt lat="44.61542" lon="3.22081">
        <ele>1190.1</ele>
        <time>2021-05-30T08:12:02Z</time>
      </trkpt>
      <trkpt lat="44.61515" lon="3.22044">
        <ele>1185.7</ele>
        <time>2021-05-30T08:12:32Z</time>
      </trkpt>
      <trkpt lat="44.61485" lon="3.22018">
        <ele>1181.2</ele>
        <time>2021-05-30T08:13:03Z</time>
      </trkpt>
      <trkpt lat="44.61466" lon="3.21999">
        <ele>1176.8</ele>
        <time>2021-05-30T08:13:34Z</time>
      </trkpt>
      <trkpt lat="44.61453" lon="3.21967">
        <ele>1177.7</ele>
        <time>2021-05-30T08:14:04Z</time>
      </trkpt>
      <trkpt lat="44.61426" lon="3.21929">
        <ele>1168.9</ele>
        <time>2021-05-30T08:14:34Z</time>
      </trkpt>
      <trkpt lat="44.61415" lon="3.21923">
        <ele>1166.7</ele>
        <time>2021-05-30T08:15:05Z</time>
      </trkpt>
      <trkpt lat="44.61405" lon="3.21922">
        <ele>1166.8</ele>
        <time>2021-05-30T08:25:35Z</time>
      </trkpt>
      <trkpt lat="44.61393" lon="3.2193">
        <ele>1168.9</ele>
        <time>2021-05-30T08:26:06Z</time>
      </trkpt>
      <trkpt lat="44.61377" lon="3.21941">
        <ele>1166.7</ele>
        <time>2021-05-30T08:26:36Z</time>
      </trkpt>
      <trkpt lat="44.6136" lon="3.21979">
        <ele>1164.7</ele>
        <time>2021-05-30T08:27:06Z</time>
      </trkpt>
      <trkpt lat="44.61326" lon="3.21988">
        <ele>1167.3</ele>
        <time>2021-05-30T08:27:36Z</time>
      </trkpt>
      <trkpt lat="44.61289" lon="3.21954">
        <ele>1164.6</ele>
        <time>2021-05-30T08:28:07Z</time>
      </trkpt>
      <trkpt lat="44.61274" lon="3.21934">
        <ele>1159</ele>
        <time>2021-05-30T08:28:38Z</time>
      </trkpt>
      <trkpt lat="44.61253" lon="3.21935">
        <ele>1158.1</ele>
        <time>2021-05-30T08:29:08Z</time>
      </trkpt>
      <trkpt lat="44.61221" lon="3.21974">
        <ele>1152.6</ele>
        <time>2021-05-30T08:29:38Z</time>
      </trkpt>
      <trkpt lat="44.61183" lon="3.21977">
        <ele>1150.7</ele>
        <time>2021-05-30T08:30:08Z</time>
      </trkpt>
      <trkpt lat="44.61156" lon="3.21972">
        <ele>1149.4</ele>
        <time>2021-05-30T08:30:39Z</time>
      </trkpt>
      <trkpt lat="44.6112" lon="3.21953">
        <ele>1146.5</ele>
        <time>2021-05-30T08:31:09Z</time>
      </trkpt>
      <trkpt lat="44.61078" lon="3.21935">
        <ele>1138.8</ele>
        <time>2021-05-30T08:31:40Z</time>
      </trkpt>
      <trkpt lat="44.6104" lon="3.21913">
        <ele>1133.4</ele>
        <time>2021-05-30T08:32:10Z</time>
      </trkpt>
      <trkpt lat="44.61011" lon="3.21876">
        <ele>1131.3</ele>
        <time>2021-05-30T08:32:41Z</time>
      </trkpt>
      <trkpt lat="44.6098" lon="3.21837">
        <ele>1123.9</ele>
        <time>2021-05-30T08:33:12Z</time>
      </trkpt>
      <trkpt lat="44.60944" lon="3.21811">
        <ele>1120.2</ele>
        <time>2021-05-30T08:33:42Z</time>
      </trkpt>
      <trkpt lat="44.60908" lon="3.21786">
        <ele>1118.4</ele>
        <time>2021-05-30T08:34:12Z</time>
      </trkpt>
      <trkpt lat="44.60875" lon="3.21748">
        <ele>1117.5</ele>
        <time>2021-05-30T08:34:43Z</time>
      </trkpt>
      <trkpt lat="44.60852" lon="3.21713">
        <ele>1115.6</ele>
        <time>2021-05-30T08:35:14Z</time>
      </trkpt>
      <trkpt lat="44.60832" lon="3.21675">
        <ele>1114.8</ele>
        <time>2021-05-30T08:35:45Z</time>
      </trkpt>
      <trkpt lat="44.60817" lon="3.21619">
        <ele>1108.3</ele>
        <time>2021-05-30T08:36:15Z</time>
      </trkpt>
      <trkpt lat="44.60802" lon="3.21561">
        <ele>1103.3</ele>
        <time>2021-05-30T08:36:46Z</time>
      </trkpt>
      <trkpt lat="44.60786" lon="3.21515">
        <ele>1097.2</ele>
        <time>2021-05-30T08:37:17Z</time>
      </trkpt>
      <trkpt lat="44.60763" lon="3.21484">
        <ele>1093.9</ele>
        <time>2021-05-30T08:37:48Z</time>
      </trkpt>
      <trkpt lat="44.60751" lon="3.21439">
        <ele>1091.7</ele>
        <time>2021-05-30T08:38:18Z</time>
      </trkpt>
      <trkpt lat="44.60742" lon="3.21397">
        <ele>1091.3</ele>
        <time>2021-05-30T08:38:49Z</time>
      </trkpt>
      <trkpt lat="44.60724" lon="3.21366">
        <ele>1088.1</ele>
        <time>2021-05-30T08:39:19Z</time>
      </trkpt>
      <trkpt lat="44.60704" lon="3.21335">
        <ele>1084.4</ele>
        <time>2021-05-30T08:39:49Z</time>
      </trkpt>
      <trkpt lat="44.60677" lon="3.2131">
        <ele>1081.9</ele>
        <time>2021-05-30T08:40:20Z</time>
      </trkpt>
      <trkpt lat="44.60653" lon="3.21276">
        <ele>1081.6</ele>
        <time>2021-05-30T08:40:51Z</time>
      </trkpt>
      <trkpt lat="44.60637" lon="3.21235">
        <ele>1080.8</ele>
        <time>2021-05-30T08:41:21Z</time>
      </trkpt>
      <trkpt lat="44.6061" lon="3.21149">
        <ele>1119.7</ele>
        <time>2021-05-30T08:41:52Z</time>
      </trkpt>
      <trkpt lat="44.60587" lon="3.211">
        <ele>1126.4</ele>
        <time>2021-05-30T08:42:22Z</time>
      </trkpt>
      <trkpt lat="44.6057" lon="3.21048">
        <ele>1123.9</ele>
        <time>2021-05-30T08:42:53Z</time>
      </trkpt>
      <trkpt lat="44.60566" lon="3.20997">
        <ele>1124.3</ele>
        <time>2021-05-30T08:43:24Z</time>
      </trkpt>
      <trkpt lat="44.6054" lon="3.20954">
        <ele>1124.5</ele>
        <time>2021-05-30T08:43:55Z</time>
      </trkpt>
      <trkpt lat="44.60518" lon="3.2091">
        <ele>1121.7</ele>
        <time>2021-05-30T08:44:25Z</time>
      </trkpt>
      <trkpt lat="44.60478" lon="3.20883">
        <ele>1120.8</ele>
        <time>2021-05-30T08:44:56Z</time>
      </trkpt>
      <trkpt lat="44.60449" lon="3.20865">
        <ele>1120.9</ele>
        <time>2021-05-30T08:45:26Z</time>
      </trkpt>
      <trkpt lat="44.6041" lon="3.20846">
        <ele>1122.9</ele>
        <time>2021-05-30T08:45:57Z</time>
      </trkpt>
      <trkpt lat="44.60366" lon="3.20839">
        <ele>1122</ele>
        <time>2021-05-30T08:46:28Z</time>
      </trkpt>
      <trkpt lat="44.60327" lon="3.20852">
        <ele>1122.2</ele>
        <time>2021-05-30T08:46:58Z</time>
      </trkpt>
      <trkpt lat="44.60288" lon="3.20866">
        <ele>1121.4</ele>
        <time>2021-05-30T08:47:28Z</time>
      </trkpt>
      <trkpt lat="44.60262" lon="3.20869">
        <ele>1119.3</ele>
        <time>2021-05-30T08:47:58Z</time>
      </trkpt>
      <trkpt lat="44.60232" lon="3.20834">
        <ele>1121.6</ele>
        <time>2021-05-30T08:48:29Z</time>
      </trkpt>
      <trkpt lat="44.60227" lon="3.20822">
        <ele>1121.7</ele>
        <time>2021-05-30T08:51:11Z</time>
      </trkpt>
      <trkpt lat="44.60208" lon="3.20789">
        <ele>1122.4</ele>
        <time>2021-05-30T08:51:41Z</time>
      </trkpt>
      <trkpt lat="44.602" lon="3.20763">
        <ele>1125.9</ele>
        <time>2021-05-30T08:52:12Z</time>
      </trkpt>
      <trkpt lat="44.60193" lon="3.20756">
        <ele>1129</ele>
        <time>2021-05-30T08:53:07Z</time>
      </trkpt>
      <trkpt lat="44.60199" lon="3.20719">
        <ele>1131.5</ele>
        <time>2021-05-30T08:53:37Z</time>
      </trkpt>
      <trkpt lat="44.60205" lon="3.20709">
        <ele>1131.2</ele>
        <time>2021-05-30T08:54:16Z</time>
      </trkpt>
      <trkpt lat="44.60231" lon="3.20667">
        <ele>1132.5</ele>
        <time>2021-05-30T08:54:47Z</time>
      </trkpt>
      <trkpt lat="44.60249" lon="3.20627">
        <ele>1132.9</ele>
        <time>2021-05-30T08:55:17Z</time>
      </trkpt>
      <trkpt lat="44.60248" lon="3.20614">
        <ele>1130.6</ele>
        <time>2021-05-30T08:55:53Z</time>
      </trkpt>
      <trkpt lat="44.60241" lon="3.20576">
        <ele>1130.2</ele>
        <time>2021-05-30T08:56:23Z</time>
      </trkpt>
      <trkpt lat="44.60235" lon="3.20555">
        <ele>1131.5</ele>
        <time>2021-05-30T08:56:54Z</time>
      </trkpt>
      <trkpt lat="44.6022" lon="3.20515">
        <ele>1126.8</ele>
        <time>2021-05-30T08:57:24Z</time>
      </trkpt>
      <trkpt lat="44.60207" lon="3.20483">
        <ele>1125.1</ele>
        <time>2021-05-30T08:57:54Z</time>
      </trkpt>
      <trkpt lat="44.60198" lon="3.20487">
        <ele>1124.9</ele>
        <time>2021-05-30T08:58:47Z</time>
      </trkpt>
      <trkpt lat="44.60158" lon="3.2047">
        <ele>1119.6</ele>
        <time>2021-05-30T08:59:17Z</time>
      </trkpt>
      <trkpt lat="44.60123" lon="3.20446">
        <ele>1109</ele>
        <time>2021-05-30T08:59:48Z</time>
      </trkpt>
      <trkpt lat="44.60087" lon="3.20432">
        <ele>1107.2</ele>
        <time>2021-05-30T09:00:18Z</time>
      </trkpt>
      <trkpt lat="44.60052" lon="3.2042">
        <ele>1116</ele>
        <time>2021-05-30T09:00:49Z</time>
      </trkpt>
      <trkpt lat="44.60036" lon="3.2041">
        <ele>1116.3</ele>
        <time>2021-05-30T09:01:20Z</time>
      </trkpt>
      <trkpt lat="44.6001" lon="3.20394">
        <ele>1115.2</ele>
        <time>2021-05-30T09:01:50Z</time>
      </trkpt>
      <trkpt lat="44.59981" lon="3.2037">
        <ele>1114.1</ele>
        <time>2021-05-30T09:02:20Z</time>
      </trkpt>
      <trkpt lat="44.59955" lon="3.2034">
        <ele>1114</ele>
        <time>2021-05-30T09:02:51Z</time>
      </trkpt>
      <trkpt lat="44.59933" lon="3.20318">
        <ele>1112.4</ele>
        <time>2021-05-30T09:03:21Z</time>
      </trkpt>
      <trkpt lat="44.5991" lon="3.20286">
        <ele>1111.9</ele>
        <time>2021-05-30T09:03:52Z</time>
      </trkpt>
      <trkpt lat="44.59893" lon="3.20265">
        <ele>1110.5</ele>
        <time>2021-05-30T09:04:23Z</time>
      </trkpt>
      <trkpt lat="44.59874" lon="3.20229">
        <ele>1113.4</ele>
        <time>2021-05-30T09:04:54Z</time>
      </trkpt>
      <trkpt lat="44.59849" lon="3.202">
        <ele>1115.7</ele>
        <time>2021-05-30T09:05:25Z</time>
      </trkpt>
      <trkpt lat="44.59826" lon="3.20181">
        <ele>1119.9</ele>
        <time>2021-05-30T09:05:56Z</time>
      </trkpt>
      <trkpt lat="44.59808" lon="3.20151">
        <ele>1123.1</ele>
        <time>2021-05-30T09:06:27Z</time>
      </trkpt>
      <trkpt lat="44.5979" lon="3.20124">
        <ele>1124.5</ele>
        <time>2021-05-30T09:06:58Z</time>
      </trkpt>
      <trkpt lat="44.59777" lon="3.20094">
        <ele>1125.2</ele>
        <time>2021-05-30T09:07:28Z</time>
      </trkpt>
      <trkpt lat="44.59765" lon="3.20057">
        <ele>1123</ele>
        <time>2021-05-30T09:07:59Z</time>
      </trkpt>
      <trkpt lat="44.59748" lon="3.20009">
        <ele>1121.7</ele>
        <time>2021-05-30T09:08:29Z</time>
      </trkpt>
      <trkpt lat="44.59747" lon="3.1998">
        <ele>1121.8</ele>
        <time>2021-05-30T09:08:59Z</time>
      </trkpt>
      <trkpt lat="44.59728" lon="3.19907">
        <ele>1124.2</ele>
        <time>2021-05-30T09:09:30Z</time>
      </trkpt>
      <trkpt lat="44.59721" lon="3.1984">
        <ele>1127.2</ele>
        <time>2021-05-30T09:10:01Z</time>
      </trkpt>
      <trkpt lat="44.59717" lon="3.19799">
        <ele>1125.7</ele>
        <time>2021-05-30T09:10:31Z</time>
      </trkpt>
      <trkpt lat="44.59721" lon="3.19783">
        <ele>1127.8</ele>
        <time>2021-05-30T09:11:01Z</time>
      </trkpt>
      <trkpt lat="44.59732" lon="3.19759">
        <ele>1132.9</ele>
        <time>2021-05-30T09:11:32Z</time>
      </trkpt>
      <trkpt lat="44.59724" lon="3.19728">
        <ele>1140.9</ele>
        <time>2021-05-30T09:12:03Z</time>
      </trkpt>
      <trkpt lat="44.59695" lon="3.19702">
        <ele>1145.5</ele>
        <time>2021-05-30T09:12:34Z</time>
      </trkpt>
      <trkpt lat="44.59665" lon="3.19687">
        <ele>1152</ele>
        <time>2021-05-30T09:13:04Z</time>
      </trkpt>
      <trkpt lat="44.5962" lon="3.19649">
        <ele>1169</ele>
        <time>2021-05-30T09:13:35Z</time>
      </trkpt>
      <trkpt lat="44.59584" lon="3.19609">
        <ele>1184</ele>
        <time>2021-05-30T09:14:05Z</time>
      </trkpt>
      <trkpt lat="44.59559" lon="3.19579">
        <ele>1192.3</ele>
        <time>2021-05-30T09:14:36Z</time>
      </trkpt>
      <trkpt lat="44.59538" lon="3.19558">
        <ele>1198.3</ele>
        <time>2021-05-30T09:15:06Z</time>
      </trkpt>
      <trkpt lat="44.59507" lon="3.19523">
        <ele>1202.2</ele>
        <time>2021-05-30T09:15:37Z</time>
      </trkpt>
      <trkpt lat="44.59477" lon="3.19492">
        <ele>1206.6</ele>
        <time>2021-05-30T09:16:07Z</time>
      </trkpt>
      <trkpt lat="44.59459" lon="3.19474">
        <ele>1211</ele>
        <time>2021-05-30T09:16:38Z</time>
      </trkpt>
      <trkpt lat="44.59451" lon="3.19466">
        <ele>1209.8</ele>
        <time>2021-05-30T09:17:21Z</time>
      </trkpt>
      <trkpt lat="44.59422" lon="3.19433">
        <ele>1213.8</ele>
        <time>2021-05-30T09:17:52Z</time>
      </trkpt>
      <trkpt lat="44.59395" lon="3.19405">
        <ele>1214.1</ele>
        <time>2021-05-30T09:18:22Z</time>
      </trkpt>
      <trkpt lat="44.59379" lon="3.19378">
        <ele>1214.6</ele>
        <time>2021-05-30T09:18:53Z</time>
      </trkpt>
      <trkpt lat="44.59375" lon="3.19365">
        <ele>1213.7</ele>
        <time>2021-05-30T09:19:25Z</time>
      </trkpt>
      <trkpt lat="44.59369" lon="3.1935">
        <ele>1212.9</ele>
        <time>2021-05-30T09:19:55Z</time>
      </trkpt>
      <trkpt lat="44.59372" lon="3.193">
        <ele>1213.6</ele>
        <time>2021-05-30T09:20:25Z</time>
      </trkpt>
      <trkpt lat="44.5937" lon="3.19257">
        <ele>1209.2</ele>
        <time>2021-05-30T09:20:56Z</time>
      </trkpt>
      <trkpt lat="44.59374" lon="3.19205">
        <ele>1208</ele>
        <time>2021-05-30T09:21:26Z</time>
      </trkpt>
      <trkpt lat="44.59375" lon="3.19155">
        <ele>1205.6</ele>
        <time>2021-05-30T09:21:57Z</time>
      </trkpt>
      <trkpt lat="44.59376" lon="3.19109">
        <ele>1203</ele>
        <time>2021-05-30T09:22:27Z</time>
      </trkpt>
      <trkpt lat="44.59364" lon="3.1906">
        <ele>1200.7</ele>
        <time>2021-05-30T09:22:57Z</time>
      </trkpt>
      <trkpt lat="44.59368" lon="3.19008">
        <ele>1199.9</ele>
        <time>2021-05-30T09:23:28Z</time>
      </trkpt>
      <trkpt lat="44.5936" lon="3.18956">
        <ele>1201.2</ele>
        <time>2021-05-30T09:23:59Z</time>
      </trkpt>
      <trkpt lat="44.59346" lon="3.18908">
        <ele>1197.2</ele>
        <time>2021-05-30T09:24:30Z</time>
      </trkpt>
      <trkpt lat="44.59321" lon="3.18876">
        <ele>1193.6</ele>
        <time>2021-05-30T09:25:01Z</time>
      </trkpt>
      <trkpt lat="44.59295" lon="3.1885">
        <ele>1193.4</ele>
        <time>2021-05-30T09:25:31Z</time>
      </trkpt>
      <trkpt lat="44.59268" lon="3.18816">
        <ele>1194.5</ele>
        <time>2021-05-30T09:26:02Z</time>
      </trkpt>
      <trkpt lat="44.59243" lon="3.18781">
        <ele>1197.2</ele>
        <time>2021-05-30T09:26:33Z</time>
      </trkpt>
      <trkpt lat="44.59227" lon="3.18758">
        <ele>1197.8</ele>
        <time>2021-05-30T09:27:03Z</time>
      </trkpt>
      <trkpt lat="44.59205" lon="3.18729">
        <ele>1200.1</ele>
        <time>2021-05-30T09:27:34Z</time>
      </trkpt>
      <trkpt lat="44.5918" lon="3.18701">
        <ele>1204.6</ele>
        <time>2021-05-30T09:28:04Z</time>
      </trkpt>
      <trkpt lat="44.59169" lon="3.18687">
        <ele>1206.3</ele>
        <time>2021-05-30T09:28:35Z</time>
      </trkpt>
      <trkpt lat="44.59159" lon="3.18672">
        <ele>1206.7</ele>
        <time>2021-05-30T09:29:05Z</time>
      </trkpt>
      <trkpt lat="44.59143" lon="3.18652">
        <ele>1207.7</ele>
        <time>2021-05-30T09:29:35Z</time>
      </trkpt>
      <trkpt lat="44.59136" lon="3.18643">
        <ele>1205.1</ele>
        <time>2021-05-30T09:31:44Z</time>
      </trkpt>
      <trkpt lat="44.59113" lon="3.18604">
        <ele>1207.8</ele>
        <time>2021-05-30T09:32:14Z</time>
      </trkpt>
      <trkpt lat="44.59088" lon="3.18566">
        <ele>1206.4</ele>
        <time>2021-05-30T09:32:45Z</time>
      </trkpt>
      <trkpt lat="44.59073" lon="3.18526">
        <ele>1200.8</ele>
        <time>2021-05-30T09:33:16Z</time>
      </trkpt>
      <trkpt lat="44.59061" lon="3.18489">
        <ele>1196.9</ele>
        <time>2021-05-30T09:33:47Z</time>
      </trkpt>
      <trkpt lat="44.59056" lon="3.18453">
        <ele>1193.7</ele>
        <time>2021-05-30T09:34:17Z</time>
      </trkpt>
      <trkpt lat="44.59054" lon="3.18418">
        <ele>1191.3</ele>
        <time>2021-05-30T09:34:48Z</time>
      </trkpt>
      <trkpt lat="44.59051" lon="3.18376">
        <ele>1185</ele>
        <time>2021-05-30T09:35:19Z</time>
      </trkpt>
      <trkpt lat="44.59049" lon="3.18336">
        <ele>1180.7</ele>
        <time>2021-05-30T09:35:49Z</time>
      </trkpt>
      <trkpt lat="44.59041" lon="3.18294">
        <ele>1176.1</ele>
        <time>2021-05-30T09:36:20Z</time>
      </trkpt>
      <trkpt lat="44.59026" lon="3.18259">
        <ele>1174.9</ele>
        <time>2021-05-30T09:36:51Z</time>
      </trkpt>
      <trkpt lat="44.59017" lon="3.18239">
        <ele>1174.2</ele>
        <time>2021-05-30T09:37:21Z</time>
      </trkpt>
      <trkpt lat="44.59008" lon="3.182">
        <ele>1174.2</ele>
        <time>2021-05-30T09:37:52Z</time>
      </trkpt>
      <trkpt lat="44.59003" lon="3.18153">
        <ele>1178.5</ele>
        <time>2021-05-30T09:38:22Z</time>
      </trkpt>
      <trkpt lat="44.59003" lon="3.18116">
        <ele>1183</ele>
        <time>2021-05-30T09:38:52Z</time>
      </trkpt>
      <trkpt lat="44.59001" lon="3.18077">
        <ele>1188</ele>
        <time>2021-05-30T09:39:22Z</time>
      </trkpt>
      <trkpt lat="44.58974" lon="3.18063">
        <ele>1189.7</ele>
        <time>2021-05-30T09:39:53Z</time>
      </trkpt>
      <trkpt lat="44.5895" lon="3.18047">
        <ele>1193.3</ele>
        <time>2021-05-30T09:40:24Z</time>
      </trkpt>
      <trkpt lat="44.58931" lon="3.18011">
        <ele>1197.1</ele>
        <time>2021-05-30T09:40:55Z</time>
      </trkpt>
      <trkpt lat="44.58915" lon="3.17971">
        <ele>1202</ele>
        <time>2021-05-30T09:41:26Z</time>
      </trkpt>
      <trkpt lat="44.58894" lon="3.17936">
        <ele>1205</ele>
        <time>2021-05-30T09:41:57Z</time>
      </trkpt>
      <trkpt lat="44.58869" lon="3.17896">
        <ele>1205.6</ele>
        <time>2021-05-30T09:42:28Z</time>
      </trkpt>
      <trkpt lat="44.58835" lon="3.17868">
        <ele>1200.4</ele>
        <time>2021-05-30T09:42:59Z</time>
      </trkpt>
      <trkpt lat="44.58799" lon="3.17855">
        <ele>1195.4</ele>
        <time>2021-05-30T09:43:30Z</time>
      </trkpt>
      <trkpt lat="44.58784" lon="3.17847">
        <ele>1196.5</ele>
        <time>2021-05-30T09:44:01Z</time>
      </trkpt>
      <trkpt lat="44.58775" lon="3.17843">
        <ele>1196.6</ele>
        <time>2021-05-30T09:46:30Z</time>
      </trkpt>
      <trkpt lat="44.5876" lon="3.17832">
        <ele>1195</ele>
        <time>2021-05-30T09:47:00Z</time>
      </trkpt>
      <trkpt lat="44.58733" lon="3.1781">
        <ele>1193.6</ele>
        <time>2021-05-30T09:47:31Z</time>
      </trkpt>
      <trkpt lat="44.58698" lon="3.17776">
        <ele>1193.5</ele>
        <time>2021-05-30T09:48:02Z</time>
      </trkpt>
      <trkpt lat="44.58667" lon="3.17742">
        <ele>1191.9</ele>
        <time>2021-05-30T09:48:32Z</time>
      </trkpt>
      <trkpt lat="44.58638" lon="3.1771">
        <ele>1191.3</ele>
        <time>2021-05-30T09:49:02Z</time>
      </trkpt>
      <trkpt lat="44.58603" lon="3.1768">
        <ele>1190.8</ele>
        <time>2021-05-30T09:49:33Z</time>
      </trkpt>
      <trkpt lat="44.58569" lon="3.17653">
        <ele>1192.3</ele>
        <time>2021-05-30T09:50:04Z</time>
      </trkpt>
      <trkpt lat="44.58531" lon="3.17632">
        <ele>1190.9</ele>
        <time>2021-05-30T09:50:35Z</time>
      </trkpt>
      <trkpt lat="44.58495" lon="3.1761">
        <ele>1190.4</ele>
        <time>2021-05-30T09:51:06Z</time>
      </trkpt>
      <trkpt lat="44.58458" lon="3.17589">
        <ele>1192.9</ele>
        <time>2021-05-30T09:51:37Z</time>
      </trkpt>
      <trkpt lat="44.58433" lon="3.17554">
        <ele>1187.5</ele>
        <time>2021-05-30T09:52:08Z</time>
      </trkpt>
      <trkpt lat="44.58407" lon="3.17515">
        <ele>1185.2</ele>
        <time>2021-05-30T09:52:38Z</time>
      </trkpt>
      <trkpt lat="44.58382" lon="3.17471">
        <ele>1183.6</ele>
        <time>2021-05-30T09:53:09Z</time>
      </trkpt>
      <trkpt lat="44.58366" lon="3.17426">
        <ele>1182.9</ele>
        <time>2021-05-30T09:53:40Z</time>
      </trkpt>
      <trkpt lat="44.58344" lon="3.17372">
        <ele>1182.4</ele>
        <time>2021-05-30T09:54:11Z</time>
      </trkpt>
      <trkpt lat="44.58338" lon="3.17342">
        <ele>1181.1</ele>
        <time>2021-05-30T09:54:41Z</time>
      </trkpt>
      <trkpt lat="44.58335" lon="3.17285">
        <ele>1179.4</ele>
        <time>2021-05-30T09:55:12Z</time>
      </trkpt>
      <trkpt lat="44.58327" lon="3.17239">
        <ele>1178.7</ele>
        <time>2021-05-30T09:55:43Z</time>
      </trkpt>
      <trkpt lat="44.5832" lon="3.17195">
        <ele>1179.3</ele>
        <time>2021-05-30T09:56:14Z</time>
      </trkpt>
      <trkpt lat="44.583" lon="3.17164">
        <ele>1180.8</ele>
        <time>2021-05-30T09:56:45Z</time>
      </trkpt>
      <trkpt lat="44.58284" lon="3.17128">
        <ele>1184.2</ele>
        <time>2021-05-30T09:57:16Z</time>
      </trkpt>
      <trkpt lat="44.5827" lon="3.17073">
        <ele>1188.6</ele>
        <time>2021-05-30T09:57:47Z</time>
      </trkpt>
      <trkpt lat="44.58259" lon="3.17024">
        <ele>1192.4</ele>
        <time>2021-05-30T09:58:17Z</time>
      </trkpt>
      <trkpt lat="44.58242" lon="3.16976">
        <ele>1192.1</ele>
        <time>2021-05-30T09:58:48Z</time>
      </trkpt>
      <trkpt lat="44.58217" lon="3.16932">
        <ele>1191</ele>
        <time>2021-05-30T09:59:19Z</time>
      </trkpt>
      <trkpt lat="44.58202" lon="3.16884">
        <ele>1193.3</ele>
        <time>2021-05-30T09:59:49Z</time>
      </trkpt>
      <trkpt lat="44.58191" lon="3.16838">
        <ele>1190.6</ele>
        <time>2021-05-30T10:00:19Z</time>
      </trkpt>
      <trkpt lat="44.58178" lon="3.16786">
        <ele>1191.6</ele>
        <time>2021-05-30T10:00:50Z</time>
      </trkpt>
      <trkpt lat="44.58164" lon="3.16737">
        <ele>1189</ele>
        <time>2021-05-30T10:01:20Z</time>
      </trkpt>
      <trkpt lat="44.58151" lon="3.16685">
        <ele>1189.3</ele>
        <time>2021-05-30T10:01:51Z</time>
      </trkpt>
      <trkpt lat="44.58134" lon="3.16635">
        <ele>1186.9</ele>
        <time>2021-05-30T10:02:22Z</time>
      </trkpt>
      <trkpt lat="44.58113" lon="3.16589">
        <ele>1183.1</ele>
        <time>2021-05-30T10:02:53Z</time>
      </trkpt>
      <trkpt lat="44.5809" lon="3.16549">
        <ele>1176.9</ele>
        <time>2021-05-30T10:03:24Z</time>
      </trkpt>
      <trkpt lat="44.58072" lon="3.16504">
        <ele>1170.9</ele>
        <time>2021-05-30T10:03:55Z</time>
      </trkpt>
      <trkpt lat="44.58066" lon="3.16457">
        <ele>1169.2</ele>
        <time>2021-05-30T10:04:25Z</time>
      </trkpt>
      <trkpt lat="44.58068" lon="3.1644">
        <ele>1168.9</ele>
        <time>2021-05-30T10:04:56Z</time>
      </trkpt>
      <trkpt lat="44.5807" lon="3.16427">
        <ele>1168.3</ele>
        <time>2021-05-30T10:05:33Z</time>
      </trkpt>
      <trkpt lat="44.58074" lon="3.16415">
        <ele>1167.8</ele>
        <time>2021-05-30T10:17:39Z</time>
      </trkpt>
      <trkpt lat="44.58076" lon="3.16401">
        <ele>1166.7</ele>
        <time>2021-05-30T10:18:10Z</time>
      </trkpt>
      <trkpt lat="44.58078" lon="3.16388">
        <ele>1166.7</ele>
        <time>2021-05-30T10:19:49Z</time>
      </trkpt>
      <trkpt lat="44.58079" lon="3.16359">
        <ele>1163.8</ele>
        <time>2021-05-30T10:20:20Z</time>
      </trkpt>
      <trkpt lat="44.5808" lon="3.16345">
        <ele>1164.7</ele>
        <time>2021-05-30T10:21:51Z</time>
      </trkpt>
      <trkpt lat="44.58083" lon="3.1629">
        <ele>1158.1</ele>
        <time>2021-05-30T10:22:22Z</time>
      </trkpt>
      <trkpt lat="44.58084" lon="3.16271">
        <ele>1159.9</ele>
        <time>2021-05-30T10:22:52Z</time>
      </trkpt>
      <trkpt lat="44.58079" lon="3.16222">
        <ele>1154.3</ele>
        <time>2021-05-30T10:23:22Z</time>
      </trkpt>
      <trkpt lat="44.58077" lon="3.16207">
        <ele>1153.7</ele>
        <time>2021-05-30T10:23:53Z</time>
      </trkpt>
      <trkpt lat="44.58063" lon="3.16157">
        <ele>1147.7</ele>
        <time>2021-05-30T10:24:23Z</time>
      </trkpt>
      <trkpt lat="44.58051" lon="3.16117">
        <ele>1145.6</ele>
        <time>2021-05-30T10:24:53Z</time>
      </trkpt>
      <trkpt lat="44.58017" lon="3.16129">
        <ele>1140.4</ele>
        <time>2021-05-30T10:25:24Z</time>
      </trkpt>
      <trkpt lat="44.57985" lon="3.16105">
        <ele>1140</ele>
        <time>2021-05-30T10:25:54Z</time>
      </trkpt>
      <trkpt lat="44.5796" lon="3.16063">
        <ele>1134.3</ele>
        <time>2021-05-30T10:26:26Z</time>
      </trkpt>
      <trkpt lat="44.57951" lon="3.16011">
        <ele>1132.6</ele>
        <time>2021-05-30T10:26:57Z</time>
      </trkpt>
      <trkpt lat="44.57929" lon="3.15966">
        <ele>1132.5</ele>
        <time>2021-05-30T10:27:27Z</time>
      </trkpt>
      <trkpt lat="44.57893" lon="3.1595">
        <ele>1132.9</ele>
        <time>2021-05-30T10:27:57Z</time>
      </trkpt>
      <trkpt lat="44.57867" lon="3.15923">
        <ele>1132.6</ele>
        <time>2021-05-30T10:28:27Z</time>
      </trkpt>
      <trkpt lat="44.57866" lon="3.15903">
        <ele>1135.5</ele>
        <time>2021-05-30T10:28:58Z</time>
      </trkpt>
      <trkpt lat="44.57859" lon="3.15894">
        <ele>1139.7</ele>
        <time>2021-05-30T10:42:48Z</time>
      </trkpt>
      <trkpt lat="44.57844" lon="3.15868">
        <ele>1139.3</ele>
        <time>2021-05-30T10:43:18Z</time>
      </trkpt>
      <trkpt lat="44.57845" lon="3.15854">
        <ele>1140.3</ele>
        <time>2021-05-30T10:44:33Z</time>
      </trkpt>
      <trkpt lat="44.57839" lon="3.15849">
        <ele>1140.9</ele>
        <time>2021-05-30T10:45:37Z</time>
      </trkpt>
      <trkpt lat="44.57826" lon="3.15832">
        <ele>1136.8</ele>
        <time>2021-05-30T10:46:08Z</time>
      </trkpt>
      <trkpt lat="44.57809" lon="3.15803">
        <ele>1134.4</ele>
        <time>2021-05-30T10:46:38Z</time>
      </trkpt>
      <trkpt lat="44.57804" lon="3.15784">
        <ele>1133.4</ele>
        <time>2021-05-30T10:47:08Z</time>
      </trkpt>
      <trkpt lat="44.57799" lon="3.15731">
        <ele>1130.6</ele>
        <time>2021-05-30T10:47:38Z</time>
      </trkpt>
      <trkpt lat="44.57763" lon="3.15713">
        <ele>1126.5</ele>
        <time>2021-05-30T10:48:09Z</time>
      </trkpt>
      <trkpt lat="44.57728" lon="3.15697">
        <ele>1124.9</ele>
        <time>2021-05-30T10:48:39Z</time>
      </trkpt>
      <trkpt lat="44.57712" lon="3.15668">
        <ele>1124.3</ele>
        <time>2021-05-30T10:49:10Z</time>
      </trkpt>
      <trkpt lat="44.5768" lon="3.1567">
        <ele>1121.7</ele>
        <time>2021-05-30T10:49:40Z</time>
      </trkpt>
      <trkpt lat="44.57654" lon="3.15676">
        <ele>1122.5</ele>
        <time>2021-05-30T10:50:12Z</time>
      </trkpt>
      <trkpt lat="44.57628" lon="3.15688">
        <ele>1123.5</ele>
        <time>2021-05-30T10:50:42Z</time>
      </trkpt>
      <trkpt lat="44.57595" lon="3.15712">
        <ele>1124.2</ele>
        <time>2021-05-30T10:51:14Z</time>
      </trkpt>
      <trkpt lat="44.57568" lon="3.1576">
        <ele>1122.9</ele>
        <time>2021-05-30T10:51:44Z</time>
      </trkpt>
      <trkpt lat="44.57544" lon="3.15796">
        <ele>1125.6</ele>
        <time>2021-05-30T10:52:16Z</time>
      </trkpt>
      <trkpt lat="44.57542" lon="3.15798">
        <ele>1125.6</ele>
        <time>2021-05-30T10:52:46Z</time>
      </trkpt>
      <trkpt lat="44.57551" lon="3.15805">
        <ele>1127.3</ele>
        <time>2021-05-30T10:53:16Z</time>
      </trkpt>
      <trkpt lat="44.57525" lon="3.15825">
        <ele>1131.5</ele>
        <time>2021-05-30T10:53:47Z</time>
      </trkpt>
      <trkpt lat="44.57502" lon="3.15857">
        <ele>1133.9</ele>
        <time>2021-05-30T10:54:17Z</time>
      </trkpt>
      <trkpt lat="44.57475" lon="3.15889">
        <ele>1137.6</ele>
        <time>2021-05-30T10:54:47Z</time>
      </trkpt>
      <trkpt lat="44.57458" lon="3.15933">
        <ele>1140.3</ele>
        <time>2021-05-30T10:55:18Z</time>
      </trkpt>
      <trkpt lat="44.57436" lon="3.15972">
        <ele>1138.3</ele>
        <time>2021-05-30T10:55:48Z</time>
      </trkpt>
      <trkpt lat="44.57403" lon="3.16">
        <ele>1141.2</ele>
        <time>2021-05-30T10:56:20Z</time>
      </trkpt>
      <trkpt lat="44.57378" lon="3.16008">
        <ele>1140.9</ele>
        <time>2021-05-30T10:56:50Z</time>
      </trkpt>
      <trkpt lat="44.57342" lon="3.16042">
        <ele>1140.1</ele>
        <time>2021-05-30T10:57:21Z</time>
      </trkpt>
      <trkpt lat="44.57318" lon="3.16072">
        <ele>1139.5</ele>
        <time>2021-05-30T10:57:51Z</time>
      </trkpt>
      <trkpt lat="44.57294" lon="3.161">
        <ele>1139.8</ele>
        <time>2021-05-30T10:58:22Z</time>
      </trkpt>
      <trkpt lat="44.57268" lon="3.16125">
        <ele>1140.4</ele>
        <time>2021-05-30T10:58:53Z</time>
      </trkpt>
      <trkpt lat="44.57249" lon="3.16157">
        <ele>1144</ele>
        <time>2021-05-30T10:59:24Z</time>
      </trkpt>
      <trkpt lat="44.5724" lon="3.16188">
        <ele>1145.9</ele>
        <time>2021-05-30T10:59:54Z</time>
      </trkpt>
      <trkpt lat="44.5723" lon="3.16227">
        <ele>1152.7</ele>
        <time>2021-05-30T11:00:26Z</time>
      </trkpt>
      <trkpt lat="44.57219" lon="3.16264">
        <ele>1155.2</ele>
        <time>2021-05-30T11:00:56Z</time>
      </trkpt>
      <trkpt lat="44.5721" lon="3.16306">
        <ele>1158.7</ele>
        <time>2021-05-30T11:01:26Z</time>
      </trkpt>
      <trkpt lat="44.57203" lon="3.16346">
        <ele>1161.2</ele>
        <time>2021-05-30T11:01:56Z</time>
      </trkpt>
      <trkpt lat="44.57202" lon="3.16405">
        <ele>1164.3</ele>
        <time>2021-05-30T11:02:27Z</time>
      </trkpt>
      <trkpt lat="44.57182" lon="3.16414">
        <ele>1167.9</ele>
        <time>2021-05-30T11:02:58Z</time>
      </trkpt>
      <trkpt lat="44.57168" lon="3.16381">
        <ele>1169.4</ele>
        <time>2021-05-30T11:03:28Z</time>
      </trkpt>
      <trkpt lat="44.57153" lon="3.16348">
        <ele>1167.9</ele>
        <time>2021-05-30T11:03:59Z</time>
      </trkpt>
      <trkpt lat="44.57154" lon="3.16319">
        <ele>1169.7</ele>
        <time>2021-05-30T11:04:30Z</time>
      </trkpt>
      <trkpt lat="44.57134" lon="3.16282">
        <ele>1169.6</ele>
        <time>2021-05-30T11:05:02Z</time>
      </trkpt>
      <trkpt lat="44.57117" lon="3.16255">
        <ele>1171</ele>
        <time>2021-05-30T11:05:32Z</time>
      </trkpt>
      <trkpt lat="44.57099" lon="3.16225">
        <ele>1166</ele>
        <time>2021-05-30T11:06:02Z</time>
      </trkpt>
      <trkpt lat="44.57076" lon="3.1622">
        <ele>1160.6</ele>
        <time>2021-05-30T11:06:32Z</time>
      </trkpt>
      <trkpt lat="44.57046" lon="3.1621">
        <ele>1158.1</ele>
        <time>2021-05-30T11:07:03Z</time>
      </trkpt>
      <trkpt lat="44.57014" lon="3.16202">
        <ele>1154.8</ele>
        <time>2021-05-30T11:07:34Z</time>
      </trkpt>
      <trkpt lat="44.56983" lon="3.16197">
        <ele>1150.9</ele>
        <time>2021-05-30T11:08:05Z</time>
      </trkpt>
      <trkpt lat="44.56952" lon="3.16212">
        <ele>1148.9</ele>
        <time>2021-05-30T11:08:36Z</time>
      </trkpt>
      <trkpt lat="44.56919" lon="3.16212">
        <ele>1147.7</ele>
        <time>2021-05-30T11:09:06Z</time>
      </trkpt>
      <trkpt lat="44.56896" lon="3.16218">
        <ele>1144.5</ele>
        <time>2021-05-30T11:09:36Z</time>
      </trkpt>
      <trkpt lat="44.56866" lon="3.16247">
        <ele>1143.6</ele>
        <time>2021-05-30T11:10:08Z</time>
      </trkpt>
      <trkpt lat="44.56833" lon="3.16265">
        <ele>1143.1</ele>
        <time>2021-05-30T11:10:38Z</time>
      </trkpt>
      <trkpt lat="44.56802" lon="3.16295">
        <ele>1139.9</ele>
        <time>2021-05-30T11:11:09Z</time>
      </trkpt>
      <trkpt lat="44.56777" lon="3.16296">
        <ele>1144.4</ele>
        <time>2021-05-30T11:11:40Z</time>
      </trkpt>
      <trkpt lat="44.56747" lon="3.16324">
        <ele>1148.1</ele>
        <time>2021-05-30T11:12:10Z</time>
      </trkpt>
      <trkpt lat="44.56724" lon="3.16341">
        <ele>1150.1</ele>
        <time>2021-05-30T11:12:41Z</time>
      </trkpt>
      <trkpt lat="44.56708" lon="3.16357">
        <ele>1151.4</ele>
        <time>2021-05-30T11:13:11Z</time>
      </trkpt>
      <trkpt lat="44.56676" lon="3.16377">
        <ele>1160.5</ele>
        <time>2021-05-30T11:13:41Z</time>
      </trkpt>
      <trkpt lat="44.5666" lon="3.16404">
        <ele>1173</ele>
        <time>2021-05-30T11:14:12Z</time>
      </trkpt>
      <trkpt lat="44.56641" lon="3.16427">
        <ele>1174.6</ele>
        <time>2021-05-30T11:14:42Z</time>
      </trkpt>
      <trkpt lat="44.56623" lon="3.16436">
        <ele>1178.4</ele>
        <time>2021-05-30T11:15:14Z</time>
      </trkpt>
      <trkpt lat="44.56607" lon="3.16438">
        <ele>1181.6</ele>
        <time>2021-05-30T11:15:44Z</time>
      </trkpt>
      <trkpt lat="44.56602" lon="3.1644">
        <ele>1195.9</ele>
        <time>2021-05-30T11:16:14Z</time>
      </trkpt>
      <trkpt lat="44.56583" lon="3.16441">
        <ele>1203</ele>
        <time>2021-05-30T11:16:45Z</time>
      </trkpt>
      <trkpt lat="44.56567" lon="3.16438">
        <ele>1212.6</ele>
        <time>2021-05-30T11:17:15Z</time>
      </trkpt>
      <trkpt lat="44.56553" lon="3.16415">
        <ele>1220.4</ele>
        <time>2021-05-30T11:17:45Z</time>
      </trkpt>
      <trkpt lat="44.56539" lon="3.16389">
        <ele>1222.3</ele>
        <time>2021-05-30T11:18:16Z</time>
      </trkpt>
      <trkpt lat="44.56527" lon="3.16388">
        <ele>1223.9</ele>
        <time>2021-05-30T11:18:47Z</time>
      </trkpt>
      <trkpt lat="44.56512" lon="3.1639">
        <ele>1225.6</ele>
        <time>2021-05-30T11:19:17Z</time>
      </trkpt>
      <trkpt lat="44.56496" lon="3.16391">
        <ele>1230</ele>
        <time>2021-05-30T11:19:47Z</time>
      </trkpt>
      <trkpt lat="44.56484" lon="3.16381">
        <ele>1233.8</ele>
        <time>2021-05-30T11:20:18Z</time>
      </trkpt>
      <trkpt lat="44.56481" lon="3.16379">
        <ele>1235.2</ele>
        <time>2021-05-30T11:20:50Z</time>
      </trkpt>
      <trkpt lat="44.56485" lon="3.16392">
        <ele>1237.8</ele>
        <time>2021-05-30T11:21:20Z</time>
      </trkpt>
      <trkpt lat="44.56485" lon="3.16392">
        <ele>1238.1</ele>
        <time>2021-05-30T11:21:51Z</time>
      </trkpt>
      <trkpt lat="44.56481" lon="3.16378">
        <ele>1238.8</ele>
        <time>2021-05-30T11:22:21Z</time>
      </trkpt>
      <trkpt lat="44.56475" lon="3.16375">
        <ele>1245.9</ele>
        <time>2021-05-30T11:22:52Z</time>
      </trkpt>
      <trkpt lat="44.56458" lon="3.16378">
        <ele>1249.2</ele>
        <time>2021-05-30T11:23:23Z</time>
      </trkpt>
      <trkpt lat="44.56444" lon="3.16366">
        <ele>1254</ele>
        <time>2021-05-30T11:23:54Z</time>
      </trkpt>
      <trkpt lat="44.56433" lon="3.16367">
        <ele>1252.1</ele>
        <time>2021-05-30T11:24:26Z</time>
      </trkpt>
      <trkpt lat="44.56408" lon="3.16349">
        <ele>1246.1</ele>
        <time>2021-05-30T11:24:56Z</time>
      </trkpt>
      <trkpt lat="44.56387" lon="3.16342">
        <ele>1241.2</ele>
        <time>2021-05-30T11:25:27Z</time>
      </trkpt>
      <trkpt lat="44.5638" lon="3.16328">
        <ele>1243.2</ele>
        <time>2021-05-30T11:25:58Z</time>
      </trkpt>
      <trkpt lat="44.56379" lon="3.16328">
        <ele>1253.9</ele>
        <time>2021-05-30T11:26:28Z</time>
      </trkpt>
      <trkpt lat="44.56349" lon="3.1632">
        <ele>1251.5</ele>
        <time>2021-05-30T11:26:59Z</time>
      </trkpt>
      <trkpt lat="44.56319" lon="3.16309">
        <ele>1250.9</ele>
        <time>2021-05-30T11:27:30Z</time>
      </trkpt>
      <trkpt lat="44.56295" lon="3.16299">
        <ele>1251.4</ele>
        <time>2021-05-30T11:28:02Z</time>
      </trkpt>
      <trkpt lat="44.56274" lon="3.16282">
        <ele>1254.6</ele>
        <time>2021-05-30T11:28:32Z</time>
      </trkpt>
      <trkpt lat="44.56254" lon="3.16274">
        <ele>1258.1</ele>
        <time>2021-05-30T11:29:02Z</time>
      </trkpt>
      <trkpt lat="44.56237" lon="3.16276">
        <ele>1261.4</ele>
        <time>2021-05-30T11:29:33Z</time>
      </trkpt>
      <trkpt lat="44.56213" lon="3.16261">
        <ele>1263.8</ele>
        <time>2021-05-30T11:30:05Z</time>
      </trkpt>
      <trkpt lat="44.56186" lon="3.16245">
        <ele>1268.3</ele>
        <time>2021-05-30T11:30:36Z</time>
      </trkpt>
      <trkpt lat="44.5616" lon="3.16239">
        <ele>1272.8</ele>
        <time>2021-05-30T11:31:06Z</time>
      </trkpt>
      <trkpt lat="44.56132" lon="3.16218">
        <ele>1277.2</ele>
        <time>2021-05-30T11:31:36Z</time>
      </trkpt>
      <trkpt lat="44.56108" lon="3.16214">
        <ele>1281.8</ele>
        <time>2021-05-30T11:32:06Z</time>
      </trkpt>
      <trkpt lat="44.56108" lon="3.16214">
        <ele>1280.5</ele>
        <time>2021-05-30T11:32:36Z</time>
      </trkpt>
      <trkpt lat="44.56108" lon="3.16214">
        <ele>1282.3</ele>
        <time>2021-05-30T11:33:07Z</time>
      </trkpt>
      <trkpt lat="44.56102" lon="3.16212">
        <ele>1292.9</ele>
        <time>2021-05-30T11:33:37Z</time>
      </trkpt>
      <trkpt lat="44.56102" lon="3.16212">
        <ele>1293.2</ele>
        <time>2021-05-30T11:34:08Z</time>
      </trkpt>
      <trkpt lat="44.5608" lon="3.16204">
        <ele>1293.9</ele>
        <time>2021-05-30T11:34:38Z</time>
      </trkpt>
      <trkpt lat="44.56044" lon="3.16194">
        <ele>1295.4</ele>
        <time>2021-05-30T11:35:09Z</time>
      </trkpt>
      <trkpt lat="44.56007" lon="3.16179">
        <ele>1301.7</ele>
        <time>2021-05-30T11:35:40Z</time>
      </trkpt>
      <trkpt lat="44.55971" lon="3.16173">
        <ele>1300.5</ele>
        <time>2021-05-30T11:36:10Z</time>
      </trkpt>
      <trkpt lat="44.55937" lon="3.16167">
        <ele>1301.4</ele>
        <time>2021-05-30T11:36:41Z</time>
      </trkpt>
      <trkpt lat="44.55905" lon="3.16157">
        <ele>1303.1</ele>
        <time>2021-05-30T11:37:11Z</time>
      </trkpt>
      <trkpt lat="44.55873" lon="3.16146">
        <ele>1304.8</ele>
        <time>2021-05-30T11:37:42Z</time>
      </trkpt>
      <trkpt lat="44.55861" lon="3.16144">
        <ele>1306.2</ele>
        <time>2021-05-30T11:38:12Z</time>
      </trkpt>
      <trkpt lat="44.55859" lon="3.16144">
        <ele>1307</ele>
        <time>2021-05-30T11:38:43Z</time>
      </trkpt>
      <trkpt lat="44.5586" lon="3.16141">
        <ele>1306.6</ele>
        <time>2021-05-30T11:39:14Z</time>
      </trkpt>
      <trkpt lat="44.5584" lon="3.16102">
        <ele>1306.1</ele>
        <time>2021-05-30T11:39:44Z</time>
      </trkpt>
      <trkpt lat="44.5582" lon="3.16058">
        <ele>1306.3</ele>
        <time>2021-05-30T11:40:14Z</time>
      </trkpt>
      <trkpt lat="44.55808" lon="3.1601">
        <ele>1305</ele>
        <time>2021-05-30T11:40:44Z</time>
      </trkpt>
      <trkpt lat="44.5579" lon="3.15964">
        <ele>1298.2</ele>
        <time>2021-05-30T11:41:14Z</time>
      </trkpt>
      <trkpt lat="44.55783" lon="3.15917">
        <ele>1296.1</ele>
        <time>2021-05-30T11:41:44Z</time>
      </trkpt>
      <trkpt lat="44.55777" lon="3.15874">
        <ele>1295.5</ele>
        <time>2021-05-30T11:42:14Z</time>
      </trkpt>
      <trkpt lat="44.55769" lon="3.15856">
        <ele>1299.9</ele>
        <time>2021-05-30T11:42:44Z</time>
      </trkpt>
      <trkpt lat="44.55766" lon="3.15855">
        <ele>1309.1</ele>
        <time>2021-05-30T11:43:14Z</time>
      </trkpt>
      <trkpt lat="44.55764" lon="3.15854">
        <ele>1310.1</ele>
        <time>2021-05-30T11:43:45Z</time>
      </trkpt>
      <trkpt lat="44.5576" lon="3.15856">
        <ele>1310.4</ele>
        <time>2021-05-30T11:44:15Z</time>
      </trkpt>
      <trkpt lat="44.55755" lon="3.15862">
        <ele>1310.3</ele>
        <time>2021-05-30T11:44:45Z</time>
      </trkpt>
      <trkpt lat="44.55759" lon="3.15855">
        <ele>1312.2</ele>
        <time>2021-05-30T11:45:16Z</time>
      </trkpt>
      <trkpt lat="44.55759" lon="3.15855">
        <ele>1313.1</ele>
        <time>2021-05-30T11:45:47Z</time>
      </trkpt>
      <trkpt lat="44.55759" lon="3.15855">
        <ele>1313.5</ele>
        <time>2021-05-30T11:46:17Z</time>
      </trkpt>
      <trkpt lat="44.55759" lon="3.15855">
        <ele>1312.5</ele>
        <time>2021-05-30T11:46:48Z</time>
      </trkpt>
      <trkpt lat="44.55759" lon="3.15855">
        <ele>1313.2</ele>
        <time>2021-05-30T11:47:20Z</time>
      </trkpt>
      <trkpt lat="44.55759" lon="3.15855">
        <ele>1313</ele>
        <time>2021-05-30T11:47:50Z</time>
      </trkpt>
      <trkpt lat="44.55765" lon="3.15846">
        <ele>1314.3</ele>
        <time>2021-05-30T11:48:20Z</time>
      </trkpt>
      <trkpt lat="44.55765" lon="3.15845">
        <ele>1314.9</ele>
        <time>2021-05-30T11:48:50Z</time>
      </trkpt>
      <trkpt lat="44.55771" lon="3.15856">
        <ele>1310.3</ele>
        <time>2021-05-30T11:55:09Z</time>
      </trkpt>
      <trkpt lat="44.55765" lon="3.15862">
        <ele>1308</ele>
        <time>2021-05-30T11:56:02Z</time>
      </trkpt>
      <trkpt lat="44.55765" lon="3.15862">
        <ele>1307.7</ele>
        <time>2021-05-30T11:56:32Z</time>
      </trkpt>
      <trkpt lat="44.55765" lon="3.15862">
        <ele>1308.3</ele>
        <time>2021-05-30T11:57:02Z</time>
      </trkpt>
      <trkpt lat="44.55765" lon="3.15862">
        <ele>1307.6</ele>
        <time>2021-05-30T11:57:33Z</time>
      </trkpt>
      <trkpt lat="44.55762" lon="3.15854">
        <ele>1312.6</ele>
        <time>2021-05-30T11:58:03Z</time>
      </trkpt>
      <trkpt lat="44.55733" lon="3.15864">
        <ele>1310.5</ele>
        <time>2021-05-30T11:58:33Z</time>
      </trkpt>
      <trkpt lat="44.55695" lon="3.1586">
        <ele>1303.4</ele>
        <time>2021-05-30T11:59:04Z</time>
      </trkpt>
      <trkpt lat="44.55668" lon="3.15839">
        <ele>1290.3</ele>
        <time>2021-05-30T11:59:34Z</time>
      </trkpt>
      <trkpt lat="44.55651" lon="3.1582">
        <ele>1284.8</ele>
        <time>2021-05-30T12:00:04Z</time>
      </trkpt>
      <trkpt lat="44.55646" lon="3.15829">
        <ele>1284.5</ele>
        <time>2021-05-30T12:00:35Z</time>
      </trkpt>
      <trkpt lat="44.55625" lon="3.15872">
        <ele>1290.7</ele>
        <time>2021-05-30T12:01:05Z</time>
      </trkpt>
      <trkpt lat="44.55594" lon="3.15904">
        <ele>1291</ele>
        <time>2021-05-30T12:01:35Z</time>
      </trkpt>
      <trkpt lat="44.55564" lon="3.15936">
        <ele>1294.6</ele>
        <time>2021-05-30T12:02:06Z</time>
      </trkpt>
      <trkpt lat="44.55528" lon="3.15965">
        <ele>1293.1</ele>
        <time>2021-05-30T12:02:36Z</time>
      </trkpt>
      <trkpt lat="44.55495" lon="3.15994">
        <ele>1288.3</ele>
        <time>2021-05-30T12:03:07Z</time>
      </trkpt>
      <trkpt lat="44.55464" lon="3.1602">
        <ele>1282.7</ele>
        <time>2021-05-30T12:03:37Z</time>
      </trkpt>
      <trkpt lat="44.55431" lon="3.16047">
        <ele>1279.2</ele>
        <time>2021-05-30T12:04:08Z</time>
      </trkpt>
      <trkpt lat="44.55398" lon="3.16076">
        <ele>1274.3</ele>
        <time>2021-05-30T12:04:39Z</time>
      </trkpt>
      <trkpt lat="44.55389" lon="3.16082">
        <ele>1275.8</ele>
        <time>2021-05-30T12:05:09Z</time>
      </trkpt>
      <trkpt lat="44.55389" lon="3.16082">
        <ele>1274.8</ele>
        <time>2021-05-30T12:05:40Z</time>
      </trkpt>
      <trkpt lat="44.55388" lon="3.16086">
        <ele>1283.9</ele>
        <time>2021-05-30T12:06:10Z</time>
      </trkpt>
      <trkpt lat="44.55388" lon="3.16086">
        <ele>1284.2</ele>
        <time>2021-05-30T12:06:40Z</time>
      </trkpt>
      <trkpt lat="44.55388" lon="3.16086">
        <ele>1284.6</ele>
        <time>2021-05-30T12:07:11Z</time>
      </trkpt>
      <trkpt lat="44.55382" lon="3.16077">
        <ele>1294.3</ele>
        <time>2021-05-30T12:10:35Z</time>
      </trkpt>
      <trkpt lat="44.55374" lon="3.16085">
        <ele>1292</ele>
        <time>2021-05-30T12:11:20Z</time>
      </trkpt>
      <trkpt lat="44.55348" lon="3.16115">
        <ele>1296.9</ele>
        <time>2021-05-30T12:11:50Z</time>
      </trkpt>
      <trkpt lat="44.55311" lon="3.16128">
        <ele>1293.9</ele>
        <time>2021-05-30T12:12:20Z</time>
      </trkpt>
      <trkpt lat="44.55269" lon="3.1614">
        <ele>1289.5</ele>
        <time>2021-05-30T12:12:51Z</time>
      </trkpt>
      <trkpt lat="44.55231" lon="3.16163">
        <ele>1290.4</ele>
        <time>2021-05-30T12:13:21Z</time>
      </trkpt>
      <trkpt lat="44.55198" lon="3.16179">
        <ele>1287.7</ele>
        <time>2021-05-30T12:13:52Z</time>
      </trkpt>
      <trkpt lat="44.55164" lon="3.16206">
        <ele>1284.9</ele>
        <time>2021-05-30T12:14:22Z</time>
      </trkpt>
      <trkpt lat="44.55126" lon="3.16235">
        <ele>1287</ele>
        <time>2021-05-30T12:14:53Z</time>
      </trkpt>
      <trkpt lat="44.55088" lon="3.16253">
        <ele>1282.6</ele>
        <time>2021-05-30T12:15:24Z</time>
      </trkpt>
      <trkpt lat="44.55055" lon="3.16276">
        <ele>1278</ele>
        <time>2021-05-30T12:15:54Z</time>
      </trkpt>
      <trkpt lat="44.55032" lon="3.1629">
        <ele>1281.3</ele>
        <time>2021-05-30T12:16:26Z</time>
      </trkpt>
      <trkpt lat="44.54995" lon="3.16314">
        <ele>1282.2</ele>
        <time>2021-05-30T12:16:57Z</time>
      </trkpt>
      <trkpt lat="44.54962" lon="3.16339">
        <ele>1275.5</ele>
        <time>2021-05-30T12:17:27Z</time>
      </trkpt>
      <trkpt lat="44.54926" lon="3.16359">
        <ele>1270.8</ele>
        <time>2021-05-30T12:17:57Z</time>
      </trkpt>
      <trkpt lat="44.54895" lon="3.16375">
        <ele>1265.8</ele>
        <time>2021-05-30T12:18:27Z</time>
      </trkpt>
      <trkpt lat="44.5486" lon="3.16404">
        <ele>1262.1</ele>
        <time>2021-05-30T12:18:58Z</time>
      </trkpt>
      <trkpt lat="44.54823" lon="3.16427">
        <ele>1263.3</ele>
        <time>2021-05-30T12:19:29Z</time>
      </trkpt>
      <trkpt lat="44.54792" lon="3.16439">
        <ele>1263.7</ele>
        <time>2021-05-30T12:19:59Z</time>
      </trkpt>
      <trkpt lat="44.54754" lon="3.16456">
        <ele>1259.9</ele>
        <time>2021-05-30T12:20:29Z</time>
      </trkpt>
      <trkpt lat="44.5472" lon="3.16486">
        <ele>1257.6</ele>
        <time>2021-05-30T12:21:00Z</time>
      </trkpt>
      <trkpt lat="44.54693" lon="3.16515">
        <ele>1255.5</ele>
        <time>2021-05-30T12:21:32Z</time>
      </trkpt>
      <trkpt lat="44.54661" lon="3.1654">
        <ele>1253.8</ele>
        <time>2021-05-30T12:22:02Z</time>
      </trkpt>
      <trkpt lat="44.54643" lon="3.16565">
        <ele>1252.1</ele>
        <time>2021-05-30T12:22:32Z</time>
      </trkpt>
      <trkpt lat="44.54634" lon="3.16571">
        <ele>1250.2</ele>
        <time>2021-05-30T12:23:09Z</time>
      </trkpt>
      <trkpt lat="44.54622" lon="3.16582">
        <ele>1252.7</ele>
        <time>2021-05-30T12:23:39Z</time>
      </trkpt>
      <trkpt lat="44.5462" lon="3.16595">
        <ele>1251.6</ele>
        <time>2021-05-30T12:24:51Z</time>
      </trkpt>
      <trkpt lat="44.54593" lon="3.16629">
        <ele>1250</ele>
        <time>2021-05-30T12:25:22Z</time>
      </trkpt>
      <trkpt lat="44.54565" lon="3.1666">
        <ele>1241.9</ele>
        <time>2021-05-30T12:25:53Z</time>
      </trkpt>
      <trkpt lat="44.54552" lon="3.16675">
        <ele>1238.6</ele>
        <time>2021-05-30T12:26:24Z</time>
      </trkpt>
      <trkpt lat="44.54522" lon="3.16694">
        <ele>1235.7</ele>
        <time>2021-05-30T12:26:54Z</time>
      </trkpt>
      <trkpt lat="44.54495" lon="3.16726">
        <ele>1228.4</ele>
        <time>2021-05-30T12:27:26Z</time>
      </trkpt>
      <trkpt lat="44.54471" lon="3.1676">
        <ele>1219.5</ele>
        <time>2021-05-30T12:27:56Z</time>
      </trkpt>
      <trkpt lat="44.54449" lon="3.16798">
        <ele>1214.1</ele>
        <time>2021-05-30T12:28:26Z</time>
      </trkpt>
      <trkpt lat="44.54422" lon="3.16827">
        <ele>1209.3</ele>
        <time>2021-05-30T12:28:56Z</time>
      </trkpt>
      <trkpt lat="44.54394" lon="3.16852">
        <ele>1204.3</ele>
        <time>2021-05-30T12:29:27Z</time>
      </trkpt>
      <trkpt lat="44.54361" lon="3.16868">
        <ele>1200.3</ele>
        <time>2021-05-30T12:29:58Z</time>
      </trkpt>
      <trkpt lat="44.54325" lon="3.1687">
        <ele>1193</ele>
        <time>2021-05-30T12:30:29Z</time>
      </trkpt>
      <trkpt lat="44.54315" lon="3.16869">
        <ele>1194.1</ele>
        <time>2021-05-30T12:31:14Z</time>
      </trkpt>
      <trkpt lat="44.54291" lon="3.16871">
        <ele>1191.3</ele>
        <time>2021-05-30T12:31:45Z</time>
      </trkpt>
      <trkpt lat="44.54257" lon="3.1688">
        <ele>1186.6</ele>
        <time>2021-05-30T12:32:16Z</time>
      </trkpt>
      <trkpt lat="44.54221" lon="3.16886">
        <ele>1181</ele>
        <time>2021-05-30T12:32:47Z</time>
      </trkpt>
      <trkpt lat="44.54184" lon="3.1689">
        <ele>1177.9</ele>
        <time>2021-05-30T12:33:17Z</time>
      </trkpt>
      <trkpt lat="44.54165" lon="3.16892">
        <ele>1176.5</ele>
        <time>2021-05-30T12:33:48Z</time>
      </trkpt>
      <trkpt lat="44.54155" lon="3.16893">
        <ele>1180.8</ele>
        <time>2021-05-30T12:34:20Z</time>
      </trkpt>
      <trkpt lat="44.54126" lon="3.16914">
        <ele>1179.2</ele>
        <time>2021-05-30T12:34:50Z</time>
      </trkpt>
      <trkpt lat="44.54091" lon="3.16923">
        <ele>1175.8</ele>
        <time>2021-05-30T12:35:20Z</time>
      </trkpt>
      <trkpt lat="44.54064" lon="3.1693">
        <ele>1175.2</ele>
        <time>2021-05-30T12:35:50Z</time>
      </trkpt>
      <trkpt lat="44.54049" lon="3.16939">
        <ele>1176.3</ele>
        <time>2021-05-30T12:36:20Z</time>
      </trkpt>
      <trkpt lat="44.54014" lon="3.16941">
        <ele>1175.3</ele>
        <time>2021-05-30T12:36:51Z</time>
      </trkpt>
      <trkpt lat="44.53976" lon="3.16941">
        <ele>1171.1</ele>
        <time>2021-05-30T12:37:21Z</time>
      </trkpt>
      <trkpt lat="44.53943" lon="3.16932">
        <ele>1166.7</ele>
        <time>2021-05-30T12:37:51Z</time>
      </trkpt>
      <trkpt lat="44.53907" lon="3.16917">
        <ele>1161.8</ele>
        <time>2021-05-30T12:38:22Z</time>
      </trkpt>
      <trkpt lat="44.53872" lon="3.16914">
        <ele>1155.9</ele>
        <time>2021-05-30T12:38:53Z</time>
      </trkpt>
      <trkpt lat="44.53838" lon="3.16912">
        <ele>1148.3</ele>
        <time>2021-05-30T12:39:23Z</time>
      </trkpt>
      <trkpt lat="44.53807" lon="3.16918">
        <ele>1139</ele>
        <time>2021-05-30T12:39:54Z</time>
      </trkpt>
      <trkpt lat="44.53769" lon="3.16925">
        <ele>1134.8</ele>
        <time>2021-05-30T12:40:24Z</time>
      </trkpt>
      <trkpt lat="44.53732" lon="3.16923">
        <ele>1128.5</ele>
        <time>2021-05-30T12:40:54Z</time>
      </trkpt>
      <trkpt lat="44.53697" lon="3.16915">
        <ele>1126.3</ele>
        <time>2021-05-30T12:41:24Z</time>
      </trkpt>
      <trkpt lat="44.53666" lon="3.16906">
        <ele>1123.5</ele>
        <time>2021-05-30T12:41:54Z</time>
      </trkpt>
      <trkpt lat="44.53638" lon="3.16898">
        <ele>1118</ele>
        <time>2021-05-30T12:42:26Z</time>
      </trkpt>
      <trkpt lat="44.53602" lon="3.16871">
        <ele>1112.4</ele>
        <time>2021-05-30T12:42:56Z</time>
      </trkpt>
      <trkpt lat="44.53565" lon="3.1686">
        <ele>1109.8</ele>
        <time>2021-05-30T12:43:26Z</time>
      </trkpt>
      <trkpt lat="44.53526" lon="3.1686">
        <ele>1106.4</ele>
        <time>2021-05-30T12:43:57Z</time>
      </trkpt>
      <trkpt lat="44.5349" lon="3.1687">
        <ele>1101.3</ele>
        <time>2021-05-30T12:44:28Z</time>
      </trkpt>
      <trkpt lat="44.53449" lon="3.16879">
        <ele>1098.4</ele>
        <time>2021-05-30T12:44:58Z</time>
      </trkpt>
      <trkpt lat="44.5341" lon="3.16894">
        <ele>1100</ele>
        <time>2021-05-30T12:45:28Z</time>
      </trkpt>
      <trkpt lat="44.53373" lon="3.16905">
        <ele>1096.6</ele>
        <time>2021-05-30T12:45:58Z</time>
      </trkpt>
      <trkpt lat="44.53353" lon="3.16919">
        <ele>1095.8</ele>
        <time>2021-05-30T12:46:29Z</time>
      </trkpt>
      <trkpt lat="44.53319" lon="3.16942">
        <ele>1089.7</ele>
        <time>2021-05-30T12:47:00Z</time>
      </trkpt>
      <trkpt lat="44.5329" lon="3.16976">
        <ele>1085.7</ele>
        <time>2021-05-30T12:47:30Z</time>
      </trkpt>
      <trkpt lat="44.53261" lon="3.17009">
        <ele>1081</ele>
        <time>2021-05-30T12:48:00Z</time>
      </trkpt>
      <trkpt lat="44.53224" lon="3.17032">
        <ele>1082.2</ele>
        <time>2021-05-30T12:48:32Z</time>
      </trkpt>
      <trkpt lat="44.53189" lon="3.17031">
        <ele>1077.4</ele>
        <time>2021-05-30T12:49:02Z</time>
      </trkpt>
      <trkpt lat="44.53153" lon="3.17031">
        <ele>1072.5</ele>
        <time>2021-05-30T12:49:32Z</time>
      </trkpt>
      <trkpt lat="44.53114" lon="3.17034">
        <ele>1073.6</ele>
        <time>2021-05-30T12:50:02Z</time>
      </trkpt>
      <trkpt lat="44.53076" lon="3.17035">
        <ele>1070.6</ele>
        <time>2021-05-30T12:50:32Z</time>
      </trkpt>
      <trkpt lat="44.53035" lon="3.17051">
        <ele>1070</ele>
        <time>2021-05-30T12:51:03Z</time>
      </trkpt>
      <trkpt lat="44.52998" lon="3.17065">
        <ele>1068.7</ele>
        <time>2021-05-30T12:51:33Z</time>
      </trkpt>
      <trkpt lat="44.52959" lon="3.17067">
        <ele>1067.4</ele>
        <time>2021-05-30T12:52:04Z</time>
      </trkpt>
      <trkpt lat="44.52953" lon="3.17082">
        <ele>1065.8</ele>
        <time>2021-05-30T12:52:34Z</time>
      </trkpt>
      <trkpt lat="44.5294" lon="3.17119">
        <ele>1066.1</ele>
        <time>2021-05-30T12:53:04Z</time>
      </trkpt>
      <trkpt lat="44.52929" lon="3.17141">
        <ele>1067.2</ele>
        <time>2021-05-30T12:53:35Z</time>
      </trkpt>
      <trkpt lat="44.52914" lon="3.17156">
        <ele>1067.5</ele>
        <time>2021-05-30T12:54:05Z</time>
      </trkpt>
      <trkpt lat="44.52913" lon="3.17169">
        <ele>1069</ele>
        <time>2021-05-30T12:54:45Z</time>
      </trkpt>
      <trkpt lat="44.529" lon="3.17181">
        <ele>1071.7</ele>
        <time>2021-05-30T12:55:15Z</time>
      </trkpt>
      <trkpt lat="44.52891" lon="3.17188">
        <ele>1071.4</ele>
        <time>2021-05-30T12:55:46Z</time>
      </trkpt>
      <trkpt lat="44.52899" lon="3.17184">
        <ele>1073.2</ele>
        <time>2021-05-30T13:00:24Z</time>
      </trkpt>
      <trkpt lat="44.52911" lon="3.17171">
        <ele>1071.6</ele>
        <time>2021-05-30T13:00:55Z</time>
      </trkpt>
      <trkpt lat="44.52923" lon="3.1714">
        <ele>1067.9</ele>
        <time>2021-05-30T13:01:26Z</time>
      </trkpt>
      <trkpt lat="44.52937" lon="3.17122">
        <ele>1065.7</ele>
        <time>2021-05-30T13:01:56Z</time>
      </trkpt>
      <trkpt lat="44.52953" lon="3.17073">
        <ele>1062.1</ele>
        <time>2021-05-30T13:02:27Z</time>
      </trkpt>
      <trkpt lat="44.52922" lon="3.17044">
        <ele>1059.7</ele>
        <time>2021-05-30T13:02:58Z</time>
      </trkpt>
      <trkpt lat="44.52882" lon="3.1703">
        <ele>1059.2</ele>
        <time>2021-05-30T13:03:28Z</time>
      </trkpt>
      <trkpt lat="44.52844" lon="3.17024">
        <ele>1054.7</ele>
        <time>2021-05-30T13:03:59Z</time>
      </trkpt>
      <trkpt lat="44.52806" lon="3.17017">
        <ele>1048.4</ele>
        <time>2021-05-30T13:04:29Z</time>
      </trkpt>
      <trkpt lat="44.52788" lon="3.16992">
        <ele>1047.5</ele>
        <time>2021-05-30T13:04:59Z</time>
      </trkpt>
      <trkpt lat="44.52764" lon="3.16973">
        <ele>1046.9</ele>
        <time>2021-05-30T13:05:29Z</time>
      </trkpt>
      <trkpt lat="44.52732" lon="3.17005">
        <ele>1046.5</ele>
        <time>2021-05-30T13:05:59Z</time>
      </trkpt>
      <trkpt lat="44.52699" lon="3.1703">
        <ele>1042.6</ele>
        <time>2021-05-30T13:06:30Z</time>
      </trkpt>
      <trkpt lat="44.52669" lon="3.17059">
        <ele>1039.3</ele>
        <time>2021-05-30T13:07:02Z</time>
      </trkpt>
      <trkpt lat="44.52648" lon="3.17075">
        <ele>1036.8</ele>
        <time>2021-05-30T13:07:32Z</time>
      </trkpt>
      <trkpt lat="44.52619" lon="3.1709">
        <ele>1033</ele>
        <time>2021-05-30T13:08:02Z</time>
      </trkpt>
      <trkpt lat="44.5261" lon="3.17077">
        <ele>1031.9</ele>
        <time>2021-05-30T13:08:34Z</time>
      </trkpt>
      <trkpt lat="44.52614" lon="3.17065">
        <ele>1032.3</ele>
        <time>2021-05-30T13:09:04Z</time>
      </trkpt>
      <trkpt lat="44.52627" lon="3.17033">
        <ele>1029.1</ele>
        <time>2021-05-30T13:09:35Z</time>
      </trkpt>
      <trkpt lat="44.52651" lon="3.17004">
        <ele>1030.8</ele>
        <time>2021-05-30T13:10:05Z</time>
      </trkpt>
      <trkpt lat="44.52661" lon="3.17009">
        <ele>1033.3</ele>
        <time>2021-05-30T13:11:54Z</time>
      </trkpt>
    </trkseg>
  </trk>
</gpx>